Darstellungsparameter: Aktuell verwendete Einstellungen:
Skalierung der Graphiken ... ?
xyx+y,   Skalierungsfaktor:      Skalierung: Modus: x, Faktor: 1
Darstellungszeitraum ... ?
Vom - - bis: - -   Zeitraum: 14.11.2009 - 27.11.2009
Min/Max/Avg-Anzeige ... ?
Zeige MMA aktuell
Zeige MMA Monat
Zeige MMA alles
Zeige --A aktuell
Zeige --A Monat
Zeige --A alles
Keine MMA-Anzeige
MMA:
Average (ber die Originaldaten)
MMA-Basis: 14.11.2009 - 27.11.2009
Quicknavigation für Darstellung... ?
Tage:      1T, 2T, 3T, 5T -1T -2T -3T -5T +1T +2T +3T +5T
Wochen: 1W, 2W, 3W -1W -2W -3W +1W +2W +3W
Monate: 1M, 3M, 6M -1M -3M -6M +1M +3M +6M
Jahre:    1J, 3J, 5J, 10J -1J -3J -5J -10J +1J +3J +5J +10J
Nutze für die Darstellung ... ?
Originaldaten oder Mittelwerte auf ...
Stundenbasis Tagesbasis Wochenbasis
Monatsbasis Jahresbasis      Datenbasis: Original-Daten
Darstellen als:
Statistik (Auto) Statistik J:M      Darstellung:
Zur Graphik,    zurück zur Übersicht aller Sensoren.
 
Tabellarische Datenbersicht: ?
 
Sensor: Nr:Datum:Temp:Abs-Feuchte:Windchill:Wind:
Aussen-T/F 1 14-11-2009 00:08:04 9.6 C 8.43 g/m*3 9.6 C 0 km/h
2 14-11-2009 00:20:04 9.5 C 8.37 g/m*3 9.5 C 0 km/h
3 14-11-2009 00:32:04 9.5 C 8.37 g/m*3 9.5 C 0 km/h
4 14-11-2009 00:44:05 9.4 C 8.32 g/m*3 9.4 C 0 km/h
5 14-11-2009 00:56:05 9.5 C 8.47 g/m*3 9.5 C 0 km/h
6 14-11-2009 01:08:05 9.5 C 8.47 g/m*3 9.5 C 0 km/h
7 14-11-2009 01:20:05 9.5 C 8.47 g/m*3 9.5 C 0 km/h
8 14-11-2009 01:32:05 9.4 C 8.41 g/m*3 9.4 C 0 km/h
9 14-11-2009 01:44:05 9.4 C 8.41 g/m*3 9.4 C 0 km/h
10 14-11-2009 01:56:05 9.3 C 8.36 g/m*3 9.3 C 0 km/h
11 14-11-2009 02:08:05 9.1 C 8.25 g/m*3 9.1 C 0 km/h
12 14-11-2009 02:20:05 9.1 C 8.25 g/m*3 9.1 C 0 km/h
13 14-11-2009 02:32:05 9.1 C 8.34 g/m*3 9.1 C 0 km/h
14 14-11-2009 02:44:05 9.5 C 8.56 g/m*3 9.5 C 0 km/h
15 14-11-2009 02:56:05 9.6 C 8.61 g/m*3 9.6 C 0 km/h
16 14-11-2009 03:08:05 9.6 C 8.61 g/m*3 9.6 C 0 km/h
17 14-11-2009 03:20:05 9.8 C 8.72 g/m*3 9.8 C 0 km/h
18 14-11-2009 03:32:05 9.9 C 8.78 g/m*3 9.9 C 0 km/h
19 14-11-2009 03:44:05 10 C 8.74 g/m*3 10 C 0 km/h
20 14-11-2009 03:56:05 10.1 C 8.79 g/m*3 10.1 C 0 km/h
21 14-11-2009 04:08:05 10.2 C 8.85 g/m*3 10.2 C 0 km/h
22 14-11-2009 04:20:05 10.4 C 8.87 g/m*3 10.4 C 0 km/h
23 14-11-2009 04:32:05 10.5 C 8.83 g/m*3 10.5 C 0 km/h
24 14-11-2009 04:44:06 10.6 C 8.88 g/m*3 10.6 C 0 km/h
25 14-11-2009 04:56:06 10.5 C 8.73 g/m*3 10.5 C 0 km/h
Sensor: Nr:Datum:Temp:Abs-Feuchte:Windchill:Wind:
Aussen-T/F 26 14-11-2009 05:08:06 10.6 C 8.69 g/m*3 10.6 C 0 km/h
27 14-11-2009 05:20:06 10.7 C 8.64 g/m*3 10.7 C 0 km/h
28 14-11-2009 05:32:06 10.9 C 8.55 g/m*3 10.9 C 0 km/h
29 14-11-2009 05:44:06 10.8 C 8.3 g/m*3 10.8 C 0 km/h
30 14-11-2009 05:56:06 10.7 C 8.25 g/m*3 10.7 C 0 km/h
31 14-11-2009 06:08:06 10.7 C 8.25 g/m*3 10.7 C 0 km/h
32 14-11-2009 06:20:06 11 C 8.21 g/m*3 11 C 0 km/h
33 14-11-2009 06:32:06 11 C 8.11 g/m*3 11 C 0 km/h
34 14-11-2009 06:44:06 10.8 C 8.11 g/m*3 10.8 C 0 km/h
35 14-11-2009 06:56:06 10.7 C 8.05 g/m*3 10.7 C 0 km/h
36 14-11-2009 07:08:06 10.7 C 8.05 g/m*3 10.7 C 0 km/h
37 14-11-2009 07:20:06 10.7 C 7.96 g/m*3 10.7 C 0 km/h
38 14-11-2009 07:32:06 10.7 C 7.96 g/m*3 10.7 C 0 km/h
39 14-11-2009 07:44:06 10.7 C 8.05 g/m*3 10.7 C 0 km/h
40 14-11-2009 07:56:06 10.7 C 7.96 g/m*3 10.7 C 0 km/h
41 14-11-2009 08:08:06 10.8 C 8.01 g/m*3 10.8 C 0 km/h
42 14-11-2009 08:20:03 10.7 C 7.86 g/m*3 10.7 C 0 km/h
43 14-11-2009 08:32:03 10.8 C 7.91 g/m*3 10.8 C 0 km/h
44 14-11-2009 08:44:03 11 C 7.91 g/m*3 11 C 0 km/h
45 14-11-2009 08:56:01 11.2 C 7.91 g/m*3 11.2 C 0 km/h
46 14-11-2009 09:08:02 11.3 C 7.85 g/m*3 11.3 C 0 km/h
47 14-11-2009 09:20:02 11.6 C 7.9 g/m*3 11.6 C 0 km/h
48 14-11-2009 09:32:01 11.8 C 7.89 g/m*3 11.8 C 0 km/h
49 14-11-2009 09:44:01 12 C 7.78 g/m*3 12 C 0 km/h
50 14-11-2009 09:56:01 12.9 C 7.78 g/m*3 12.9 C 0 km/h
Sensor: Nr:Datum:Temp:Abs-Feuchte:Windchill:Wind:
Aussen-T/F 51 14-11-2009 10:08:02 13.2 C 7.46 g/m*3 13.2 C 0 km/h
52 14-11-2009 10:20:02 14 C 7.36 g/m*3 14 C 0 km/h
53 14-11-2009 10:32:01 14.6 C 7.13 g/m*3 14.6 C 0 km/h
54 14-11-2009 10:44:01 14.7 C 7.05 g/m*3 14.7 C 0 km/h
55 14-11-2009 10:56:01 14.7 C 7.05 g/m*3 14.7 C 0 km/h
56 14-11-2009 11:08:01 14.6 C 7.01 g/m*3 14.6 C 0 km/h
57 14-11-2009 11:20:02 14.6 C 7.01 g/m*3 14.6 C 0 km/h
58 14-11-2009 11:32:01 14.6 C 7.26 g/m*3 14.6 C 0 km/h
59 14-11-2009 11:44:01 14.8 C 6.97 g/m*3 14.8 C 0 km/h
60 14-11-2009 11:56:03 14.9 C 7.14 g/m*3 14.9 C 0 km/h
61 14-11-2009 12:08:02 15.2 C 7.01 g/m*3 15.2 C 0 km/h
62 14-11-2009 12:20:02 15.4 C 6.96 g/m*3 15.4 C 0 km/h
63 14-11-2009 12:32:02 14.9 C 7.39 g/m*3 14.9 C 0 km/h
64 14-11-2009 12:44:02 14 C 7.48 g/m*3 14 C 0 km/h
65 14-11-2009 12:56:02 13.5 C 8.07 g/m*3 13.5 C 0 km/h
66 14-11-2009 13:08:02 13.1 C 8.44 g/m*3 13.1 C 0 km/h
67 14-11-2009 13:20:02 13.1 C 8.67 g/m*3 13.1 C 0 km/h
68 14-11-2009 13:32:02 13.1 C 9.01 g/m*3 13.1 C 0 km/h
69 14-11-2009 13:44:02 12.9 C 9.13 g/m*3 12.9 C 0 km/h
70 14-11-2009 13:56:02 13.1 C 8.9 g/m*3 13.1 C 0 km/h
71 14-11-2009 14:08:01 13.6 C 8.47 g/m*3 13.6 C 0 km/h
72 14-11-2009 14:20:01 13.6 C 8.24 g/m*3 13.6 C 0 km/h
73 14-11-2009 14:32:02 13.4 C 8.14 g/m*3 13.4 C 0 km/h
74 14-11-2009 14:44:02 13.2 C 8.04 g/m*3 13.2 C 0 km/h
75 14-11-2009 14:56:02 13.2 C 7.92 g/m*3 13.2 C 0 km/h
Sensor: Nr:Datum:Temp:Abs-Feuchte:Windchill:Wind:
Aussen-T/F 76 14-11-2009 15:08:02 13.1 C 7.76 g/m*3 13.1 C 0 km/h
77 14-11-2009 15:20:01 13.2 C 7.81 g/m*3 13.2 C 0 km/h
78 14-11-2009 15:32:02 13.2 C 7.81 g/m*3 13.2 C 0 km/h
79 14-11-2009 15:44:02 13.3 C 7.74 g/m*3 13.3 C 0 km/h
80 14-11-2009 15:56:02 13 C 7.6 g/m*3 13 C 0 km/h
81 14-11-2009 16:08:02 12.8 C 7.62 g/m*3 12.8 C 0 km/h
82 14-11-2009 16:20:02 12.8 C 7.5 g/m*3 12.8 C 0 km/h
83 14-11-2009 16:32:02 12.6 C 7.3 g/m*3 12.6 C 0 km/h
84 14-11-2009 16:44:02 12.5 C 7.26 g/m*3 12.5 C 0 km/h
85 14-11-2009 16:56:02 12.5 C 7.15 g/m*3 12.5 C 0 km/h
86 14-11-2009 17:08:02 12.3 C 7.17 g/m*3 12.3 C 0 km/h
87 14-11-2009 17:20:02 12.3 C 7.17 g/m*3 12.3 C 0 km/h
88 14-11-2009 17:32:02 11.8 C 7.26 g/m*3 11.8 C 0 km/h
89 14-11-2009 17:44:02 11.5 C 7.23 g/m*3 11.5 C 0 km/h
90 14-11-2009 17:56:02 11.4 C 7.39 g/m*3 11.4 C 0 km/h
91 14-11-2009 18:08:02 11.2 C 7.4 g/m*3 11.2 C 0 km/h
92 14-11-2009 18:20:03 11.2 C 7.4 g/m*3 11.2 C 0 km/h
93 14-11-2009 18:32:02 11.3 C 7.45 g/m*3 11.3 C 0 km/h
94 14-11-2009 18:44:02 11.1 C 7.35 g/m*3 11.1 C 0 km/h
95 14-11-2009 18:56:02 10.8 C 7.31 g/m*3 10.8 C 0 km/h
96 14-11-2009 19:08:02 10.4 C 7.23 g/m*3 10.4 C 0 km/h
97 14-11-2009 19:20:02 10.2 C 7.33 g/m*3 10.2 C 0 km/h
98 14-11-2009 19:32:02 10.3 C 7.47 g/m*3 10.3 C 0 km/h
99 14-11-2009 19:44:02 10.7 C 7.46 g/m*3 10.7 C 0 km/h
100 14-11-2009 19:56:02 10.7 C 7.56 g/m*3 10.7 C 0 km/h
Sensor: Nr:Datum:Temp:Abs-Feuchte:Windchill:Wind:
Aussen-T/F 101 14-11-2009 20:08:02 10.8 C 7.61 g/m*3 10.8 C 0 km/h
102 14-11-2009 20:20:02 10.8 C 7.51 g/m*3 10.8 C 0 km/h
103 14-11-2009 20:32:02 10.7 C 7.37 g/m*3 10.7 C 0 km/h
104 14-11-2009 20:44:02 11 C 7.41 g/m*3 11 C 0 km/h
105 14-11-2009 20:56:02 11.1 C 7.35 g/m*3 11.1 C 0 km/h
106 14-11-2009 21:08:02 11.5 C 7.33 g/m*3 11.5 C 0 km/h
107 14-11-2009 21:20:02 11.7 C 7.22 g/m*3 11.7 C 0 km/h
108 14-11-2009 21:32:02 11.6 C 7.07 g/m*3 11.6 C 0 km/h
109 14-11-2009 21:44:02 11.4 C 7.19 g/m*3 11.4 C 0 km/h
110 14-11-2009 21:56:02 11.9 C 7.1 g/m*3 11.9 C 0 km/h
111 14-11-2009 22:08:03 12.2 C 7.01 g/m*3 12.2 C 0 km/h
112 14-11-2009 22:20:02 12.6 C 6.97 g/m*3 12.6 C 0 km/h
113 14-11-2009 22:32:02 12.9 C 6.88 g/m*3 12.9 C 0 km/h
114 14-11-2009 22:44:02 13 C 6.69 g/m*3 13 C 0 km/h
115 14-11-2009 22:57:03 13.1 C 6.62 g/m*3 13.1 C 0 km/h
116 14-11-2009 23:09:03 13.2 C 6.54 g/m*3 13.2 C 0 km/h
117 14-11-2009 23:21:03 13.2 C 6.54 g/m*3 13.2 C 0 km/h
118 14-11-2009 23:33:03 13 C 6.58 g/m*3 13 C 0 km/h
119 14-11-2009 23:45:03 12.8 C 6.72 g/m*3 12.8 C 0 km/h
120 14-11-2009 23:57:03 12.7 C 6.68 g/m*3 12.7 C 0 km/h
121 15-11-2009 00:09:04 12.6 C 6.75 g/m*3 12.6 C 0 km/h
122 15-11-2009 00:21:04 12.6 C 6.75 g/m*3 12.6 C 0 km/h
123 15-11-2009 00:33:04 12.5 C 6.82 g/m*3 12.5 C 0 km/h
124 15-11-2009 00:45:04 12.3 C 6.95 g/m*3 12.3 C 0 km/h
125 15-11-2009 00:57:04 12.3 C 7.06 g/m*3 12.3 C 0 km/h
Sensor: Nr:Datum:Temp:Abs-Feuchte:Windchill:Wind:
Aussen-T/F 126 15-11-2009 01:09:04 12.2 C 7.01 g/m*3 12.2 C 0 km/h
127 15-11-2009 01:21:04 12.2 C 6.91 g/m*3 12.2 C 0 km/h
128 15-11-2009 01:33:04 12.1 C 6.86 g/m*3 12.1 C 0 km/h
129 15-11-2009 01:45:04 12.2 C 6.8 g/m*3 12.2 C 0 km/h
130 15-11-2009 01:57:04 12 C 6.82 g/m*3 12 C 0 km/h
131 15-11-2009 02:09:04 11.8 C 6.84 g/m*3 11.8 C 0 km/h
132 15-11-2009 02:21:04 11.7 C 6.9 g/m*3 11.7 C 0 km/h
133 15-11-2009 02:33:04 11.5 C 6.82 g/m*3 11.5 C 0 km/h
134 15-11-2009 02:45:04 11.5 C 6.82 g/m*3 11.5 C 0 km/h
135 15-11-2009 02:57:04 11.4 C 6.77 g/m*3 11.4 C 0 km/h
136 15-11-2009 03:09:04 11.5 C 6.82 g/m*3 11.5 C 0 km/h
137 15-11-2009 03:21:04 11.4 C 6.77 g/m*3 11.4 C 0 km/h
138 15-11-2009 03:33:04 11.2 C 6.79 g/m*3 11.2 C 0 km/h
139 15-11-2009 03:45:04 11.4 C 6.77 g/m*3 11.4 C 0 km/h
140 15-11-2009 03:57:04 11.4 C 6.77 g/m*3 11.4 C 0 km/h
141 15-11-2009 04:09:05 11.5 C 6.82 g/m*3 11.5 C 0 km/h
142 15-11-2009 04:21:05 11.3 C 6.83 g/m*3 11.3 C 0 km/h
143 15-11-2009 04:33:05 11.2 C 6.79 g/m*3 11.2 C 0 km/h
144 15-11-2009 04:45:05 11.2 C 6.79 g/m*3 11.2 C 0 km/h
145 15-11-2009 04:57:05 10.8 C 6.72 g/m*3 10.8 C 0 km/h
146 15-11-2009 05:09:05 10.3 C 6.7 g/m*3 10.3 C 0 km/h
147 15-11-2009 05:21:05 10.2 C 6.85 g/m*3 10.2 C 0 km/h
148 15-11-2009 05:33:05 10 C 6.77 g/m*3 10 C 0 km/h
149 15-11-2009 05:45:05 9.8 C 6.87 g/m*3 9.8 C 0 km/h
150 15-11-2009 05:57:05 9.7 C 6.82 g/m*3 9.7 C 0 km/h
Sensor: Nr:Datum:Temp:Abs-Feuchte:Windchill:Wind:
Aussen-T/F 151 15-11-2009 06:09:05 9.5 C 6.83 g/m*3 9.5 C 0 km/h
152 15-11-2009 06:21:05 9.3 C 6.83 g/m*3 9.3 C 0 km/h
153 15-11-2009 06:33:05 9.1 C 6.83 g/m*3 9.1 C 0 km/h
154 15-11-2009 06:45:05 9.5 C 7.01 g/m*3 9.5 C 0 km/h
155 15-11-2009 06:57:05 9.2 C 6.88 g/m*3 9.2 C 0 km/h
156 15-11-2009 07:09:05 9.2 C 6.97 g/m*3 9.2 C 0 km/h
157 15-11-2009 07:21:05 9.3 C 7.01 g/m*3 9.3 C 0 km/h
158 15-11-2009 07:33:03 9.6 C 7.15 g/m*3 9.6 C 0 km/h
159 15-11-2009 07:45:02 9.8 C 7.14 g/m*3 9.8 C 0 km/h
160 15-11-2009 07:57:02 10 C 6.95 g/m*3 10 C 0 km/h
161 15-11-2009 08:09:01 10.2 C 7.04 g/m*3 10.2 C 0 km/h
162 15-11-2009 08:21:01 10.4 C 7.04 g/m*3 10.4 C 0 km/h
163 15-11-2009 08:33:02 10.6 C 7.03 g/m*3 10.6 C 0 km/h
164 15-11-2009 08:45:02 10.8 C 7.02 g/m*3 10.8 C 0 km/h
165 15-11-2009 08:57:02 11 C 7.01 g/m*3 11 C 0 km/h
166 15-11-2009 09:09:02 11.1 C 7.15 g/m*3 11.1 C 0 km/h
167 15-11-2009 09:21:02 11.3 C 7.24 g/m*3 11.3 C 0 km/h
168 15-11-2009 09:33:02 11.3 C 7.24 g/m*3 11.3 C 0 km/h
169 15-11-2009 09:45:02 11.5 C 7.23 g/m*3 11.5 C 0 km/h
170 15-11-2009 09:57:02 11.7 C 7.32 g/m*3 11.7 C 0 km/h
171 15-11-2009 10:09:02 11.8 C 7.26 g/m*3 11.8 C 0 km/h
172 15-11-2009 10:21:02 11.9 C 7.31 g/m*3 11.9 C 0 km/h
173 15-11-2009 10:33:02 12 C 7.25 g/m*3 12 C 0 km/h
174 15-11-2009 10:45:02 11.9 C 7.2 g/m*3 11.9 C 0 km/h
175 15-11-2009 10:57:02 12 C 7.25 g/m*3 12 C 0 km/h
Sensor: Nr:Datum:Temp:Abs-Feuchte:Windchill:Wind:
Aussen-T/F 176 15-11-2009 11:09:02 12.1 C 7.29 g/m*3 12.1 C 0 km/h
177 15-11-2009 11:21:03 12.2 C 7.23 g/m*3 12.2 C 0 km/h
178 15-11-2009 11:33:02 12.3 C 7.28 g/m*3 12.3 C 0 km/h
179 15-11-2009 11:45:03 12.4 C 7.21 g/m*3 12.4 C 0 km/h
180 15-11-2009 11:57:03 12.8 C 7.5 g/m*3 12.8 C 0 km/h
181 15-11-2009 12:09:02 13.1 C 7.42 g/m*3 13.1 C 0 km/h
182 15-11-2009 12:21:02 13.2 C 7.35 g/m*3 13.2 C 0 km/h
183 15-11-2009 12:33:02 13 C 7.26 g/m*3 13 C 0 km/h
184 15-11-2009 12:45:02 12.9 C 7.33 g/m*3 12.9 C 0 km/h
185 15-11-2009 12:57:02 13.2 C 7.23 g/m*3 13.2 C 0 km/h
186 15-11-2009 13:09:02 13.1 C 7.19 g/m*3 13.1 C 0 km/h
187 15-11-2009 13:21:02 13.2 C 7.23 g/m*3 13.2 C 0 km/h
188 15-11-2009 13:33:02 13.5 C 7.37 g/m*3 13.5 C 0 km/h
189 15-11-2009 13:45:02 13.6 C 7.3 g/m*3 13.6 C 0 km/h
190 15-11-2009 13:57:02 13.4 C 7.09 g/m*3 13.4 C 0 km/h
191 15-11-2009 14:09:01 12.9 C 7.1 g/m*3 12.9 C 0 km/h
192 15-11-2009 14:21:02 13.2 C 7 g/m*3 13.2 C 0 km/h
193 15-11-2009 14:33:02 13.2 C 6.66 g/m*3 13.2 C 0 km/h
194 15-11-2009 14:45:02 13.6 C 6.59 g/m*3 13.6 C 0 km/h
195 15-11-2009 14:57:02 14 C 6.63 g/m*3 14 C 0 km/h
196 15-11-2009 15:09:02 14.3 C 6.39 g/m*3 14.3 C 0 km/h
197 15-11-2009 15:21:02 14.1 C 6.31 g/m*3 14.1 C 0 km/h
198 15-11-2009 15:33:03 13.8 C 6.2 g/m*3 13.8 C 0 km/h
199 15-11-2009 15:45:02 13.8 C 6.2 g/m*3 13.8 C 0 km/h
200 15-11-2009 15:57:02 13.5 C 6.2 g/m*3 13.5 C 0 km/h
Sensor: Nr:Datum:Temp:Abs-Feuchte:Windchill:Wind:
Aussen-T/F 201 15-11-2009 16:09:02 13.1 C 6.28 g/m*3 13.1 C 0 km/h
202 15-11-2009 16:21:01 13 C 6.35 g/m*3 13 C 0 km/h
203 15-11-2009 16:33:02 12.8 C 6.5 g/m*3 12.8 C 0 km/h
204 15-11-2009 16:45:02 12.7 C 6.35 g/m*3 12.7 C 0 km/h
205 15-11-2009 16:57:02 12.3 C 6.41 g/m*3 12.3 C 0 km/h
206 15-11-2009 17:09:02 12.3 C 6.41 g/m*3 12.3 C 0 km/h
207 15-11-2009 17:21:02 12.1 C 6.33 g/m*3 12.1 C 0 km/h
208 15-11-2009 17:33:02 11.8 C 6.53 g/m*3 11.8 C 0 km/h
209 15-11-2009 17:45:02 11.5 C 6.51 g/m*3 11.5 C 0 km/h
210 15-11-2009 17:57:02 11.5 C 6.51 g/m*3 11.5 C 0 km/h
211 15-11-2009 18:09:02 11.2 C 6.49 g/m*3 11.2 C 0 km/h
212 15-11-2009 18:21:02 10.9 C 6.56 g/m*3 10.9 C 0 km/h
213 15-11-2009 18:33:02 10.8 C 6.62 g/m*3 10.8 C 0 km/h
214 15-11-2009 18:45:02 11.1 C 6.55 g/m*3 11.1 C 0 km/h
215 15-11-2009 18:57:02 11.4 C 6.47 g/m*3 11.4 C 0 km/h
216 15-11-2009 19:09:02 11.2 C 6.49 g/m*3 11.2 C 0 km/h
217 15-11-2009 19:21:02 10.8 C 6.52 g/m*3 10.8 C 0 km/h
218 15-11-2009 19:33:02 10.6 C 6.64 g/m*3 10.6 C 0 km/h
219 15-11-2009 19:45:01 10.4 C 6.65 g/m*3 10.4 C 0 km/h
220 15-11-2009 19:57:01 10.1 C 6.62 g/m*3 10.1 C 0 km/h
221 15-11-2009 20:09:01 9.9 C 6.82 g/m*3 9.9 C 0 km/h
222 15-11-2009 20:21:02 9.8 C 6.77 g/m*3 9.8 C 0 km/h
223 15-11-2009 20:33:01 9.6 C 6.78 g/m*3 9.6 C 0 km/h
224 15-11-2009 20:45:03 9.6 C 6.78 g/m*3 9.6 C 0 km/h
225 15-11-2009 20:57:03 9.4 C 6.69 g/m*3 9.4 C 0 km/h
Sensor: Nr:Datum:Temp:Abs-Feuchte:Windchill:Wind:
Aussen-T/F 226 15-11-2009 21:09:03 9.3 C 6.74 g/m*3 9.3 C 0 km/h
227 15-11-2009 21:21:02 9.2 C 6.79 g/m*3 9.2 C 0 km/h
228 15-11-2009 21:33:02 9.1 C 6.74 g/m*3 9.1 C 0 km/h
229 15-11-2009 21:46:03 9.1 C 6.83 g/m*3 9.1 C 0 km/h
230 15-11-2009 21:58:03 8.7 C 6.83 g/m*3 8.7 C 0 km/h
231 15-11-2009 22:10:03 8.6 C 6.79 g/m*3 8.6 C 0 km/h
232 15-11-2009 22:22:03 8.5 C 6.83 g/m*3 8.5 C 0 km/h
233 15-11-2009 22:34:03 8.5 C 6.83 g/m*3 8.5 C 0 km/h
234 15-11-2009 22:46:03 8.5 C 6.92 g/m*3 8.5 C 0 km/h
235 15-11-2009 22:58:03 8.3 C 6.83 g/m*3 8.3 C 0 km/h
236 15-11-2009 23:10:03 8.1 C 6.74 g/m*3 8.1 C 0 km/h
237 15-11-2009 23:22:03 8 C 6.7 g/m*3 8 C 0 km/h
238 15-11-2009 23:34:04 7.9 C 6.82 g/m*3 7.9 C 0 km/h
239 15-11-2009 23:46:04 7.8 C 6.77 g/m*3 7.8 C 0 km/h
240 15-11-2009 23:58:04 7.8 C 6.77 g/m*3 7.8 C 0 km/h
241 16-11-2009 00:10:04 7.7 C 6.73 g/m*3 7.7 C 0 km/h
242 16-11-2009 00:22:04 7.7 C 6.73 g/m*3 7.7 C 0 km/h
243 16-11-2009 00:34:04 7.5 C 6.72 g/m*3 7.5 C 0 km/h
244 16-11-2009 00:46:04 7.5 C 6.72 g/m*3 7.5 C 0 km/h
245 16-11-2009 00:58:04 7.4 C 6.68 g/m*3 7.4 C 0 km/h
246 16-11-2009 01:10:04 7.3 C 6.64 g/m*3 7.3 C 0 km/h
247 16-11-2009 01:22:04 7.3 C 6.64 g/m*3 7.3 C 0 km/h
248 16-11-2009 01:34:04 7.3 C 6.72 g/m*3 7.3 C 0 km/h
249 16-11-2009 01:46:04 7.1 C 6.63 g/m*3 7.1 C 0 km/h
250 16-11-2009 01:58:04 7 C 6.59 g/m*3 7 C 0 km/h
Sensor: Nr:Datum:Temp:Abs-Feuchte:Windchill:Wind:
Aussen-T/F 251 16-11-2009 02:10:04 7.1 C 6.71 g/m*3 7.1 C 0 km/h
252 16-11-2009 02:22:04 7.1 C 6.71 g/m*3 7.1 C 0 km/h
253 16-11-2009 02:34:04 7.1 C 6.71 g/m*3 7.1 C 0 km/h
254 16-11-2009 02:46:04 7.1 C 6.71 g/m*3 7.1 C 0 km/h
255 16-11-2009 02:58:04 7.1 C 6.79 g/m*3 7.1 C 0 km/h
256 16-11-2009 03:10:04 7 C 6.74 g/m*3 7 C 0 km/h
257 16-11-2009 03:22:04 7 C 6.74 g/m*3 7 C 0 km/h
258 16-11-2009 03:34:05 7 C 6.82 g/m*3 7 C 0 km/h
259 16-11-2009 03:46:05 7.1 C 6.86 g/m*3 7.1 C 0 km/h
260 16-11-2009 03:58:05 7.1 C 6.86 g/m*3 7.1 C 0 km/h
261 16-11-2009 04:10:05 7.3 C 6.95 g/m*3 7.3 C 0 km/h
262 16-11-2009 04:22:05 7.4 C 7 g/m*3 7.4 C 0 km/h
263 16-11-2009 04:34:05 7.5 C 7.04 g/m*3 7.5 C 0 km/h
264 16-11-2009 04:46:05 7.5 C 7.04 g/m*3 7.5 C 0 km/h
265 16-11-2009 04:58:05 7.5 C 6.96 g/m*3 7.5 C 0 km/h
266 16-11-2009 05:10:05 7.5 C 6.96 g/m*3 7.5 C 0 km/h
267 16-11-2009 05:22:05 7.5 C 6.96 g/m*3 7.5 C 0 km/h
268 16-11-2009 05:34:05 7.6 C 7.01 g/m*3 7.6 C 0 km/h
269 16-11-2009 05:46:05 7.6 C 7.01 g/m*3 7.6 C 0 km/h
270 16-11-2009 05:58:05 7.6 C 7.01 g/m*3 7.6 C 0 km/h
271 16-11-2009 06:10:05 7.8 C 7.18 g/m*3 7.8 C 0 km/h
272 16-11-2009 06:22:05 7.9 C 7.23 g/m*3 7.9 C 0 km/h
273 16-11-2009 06:34:05 8 C 7.19 g/m*3 8 C 0 km/h
274 16-11-2009 06:46:05 7.9 C 7.23 g/m*3 7.9 C 0 km/h
275 16-11-2009 06:58:05 7.9 C 7.23 g/m*3 7.9 C 0 km/h
Sensor: Nr:Datum:Temp:Abs-Feuchte:Windchill:Wind:
Aussen-T/F 276 16-11-2009 07:10:04 7.9 C 7.23 g/m*3 7.9 C 0 km/h
277 16-11-2009 07:22:03 7.9 C 7.31 g/m*3 7.9 C 0 km/h
278 16-11-2009 07:34:04 8 C 7.28 g/m*3 8 C 0 km/h
279 16-11-2009 07:46:02 8.1 C 7.41 g/m*3 8.1 C 0 km/h
280 16-11-2009 07:58:02 8.1 C 7.41 g/m*3 8.1 C 0 km/h
281 16-11-2009 08:10:02 8.2 C 7.45 g/m*3 8.2 C 0 km/h
282 16-11-2009 08:22:02 8.2 C 7.45 g/m*3 8.2 C 0 km/h
283 16-11-2009 08:34:02 8.3 C 7.59 g/m*3 8.3 C 0 km/h
284 16-11-2009 08:46:02 8.4 C 7.72 g/m*3 8.4 C 0 km/h
285 16-11-2009 08:58:02 8.6 C 7.82 g/m*3 8.6 C 0 km/h
286 16-11-2009 09:10:03 8.9 C 7.97 g/m*3 8.9 C 0 km/h
287 16-11-2009 09:22:02 8.9 C 8.06 g/m*3 8.9 C 0 km/h
288 16-11-2009 09:34:02 8.9 C 8.06 g/m*3 8.9 C 0 km/h
289 16-11-2009 09:46:01 9.1 C 8.16 g/m*3 9.1 C 0 km/h
290 16-11-2009 09:58:01 9.2 C 8.3 g/m*3 9.2 C 0 km/h
291 16-11-2009 10:10:01 9.6 C 8.61 g/m*3 9.6 C 0 km/h
292 16-11-2009 10:22:02 9.9 C 8.78 g/m*3 9.9 C 0 km/h
293 16-11-2009 10:34:02 9.8 C 8.72 g/m*3 9.8 C 0 km/h
294 16-11-2009 10:46:02 10 C 8.74 g/m*3 10 C 0 km/h
295 16-11-2009 10:58:03 10 C 8.74 g/m*3 10 C 0 km/h
296 16-11-2009 11:10:02 10.1 C 8.79 g/m*3 10.1 C 0 km/h
297 16-11-2009 11:22:02 10.2 C 8.95 g/m*3 10.2 C 0 km/h
298 16-11-2009 11:34:02 10.2 C 8.95 g/m*3 10.2 C 0 km/h
299 16-11-2009 11:46:02 10.3 C 9 g/m*3 10.3 C 0 km/h
300 16-11-2009 11:58:02 10.5 C 9.12 g/m*3 10.5 C 0 km/h
Sensor: Nr:Datum:Temp:Abs-Feuchte:Windchill:Wind:
Aussen-T/F 301 16-11-2009 12:10:02 10.6 C 9.17 g/m*3 10.6 C 0 km/h
302 16-11-2009 12:22:01 10.9 C 9.35 g/m*3 10.9 C 0 km/h
303 16-11-2009 12:34:02 11.4 C 9.65 g/m*3 11.4 C 0 km/h
304 16-11-2009 12:46:02 11.6 C 9.87 g/m*3 11.6 C 0 km/h
305 16-11-2009 12:58:02 11.8 C 10 g/m*3 11.8 C 0 km/h
306 16-11-2009 13:10:02 12 C 10.02 g/m*3 12 C 0 km/h
307 16-11-2009 13:22:02 12.4 C 10.38 g/m*3 12.4 C 0 km/h
308 16-11-2009 13:34:02 12.5 C 10.33 g/m*3 12.5 C 0 km/h
309 16-11-2009 13:46:02 12.6 C 10.4 g/m*3 12.6 C 0 km/h
310 16-11-2009 13:58:02 12.7 C 10.46 g/m*3 12.7 C 0 km/h
311 16-11-2009 14:10:02 12.8 C 10.53 g/m*3 12.8 C 0 km/h
312 16-11-2009 14:22:02 13 C 10.55 g/m*3 13 C 0 km/h
313 16-11-2009 14:34:02 13.4 C 10.69 g/m*3 13.4 C 0 km/h
314 16-11-2009 14:46:02 13.7 C 10.66 g/m*3 13.7 C 0 km/h
315 16-11-2009 14:58:02 13.9 C 10.67 g/m*3 13.9 C 0 km/h
316 16-11-2009 15:10:02 14 C 10.49 g/m*3 14 C 0 km/h
317 16-11-2009 15:22:02 14 C 10.25 g/m*3 14 C 0 km/h
318 16-11-2009 15:34:02 14 C 10.37 g/m*3 14 C 0 km/h
319 16-11-2009 15:46:02 13.9 C 10.43 g/m*3 13.9 C 0 km/h
320 16-11-2009 15:58:02 14.1 C 10.44 g/m*3 14.1 C 0 km/h
321 16-11-2009 16:10:02 14.1 C 10.44 g/m*3 14.1 C 0 km/h
322 16-11-2009 16:22:03 14.2 C 10.26 g/m*3 14.2 C 0 km/h
323 16-11-2009 16:34:02 14.2 C 10.26 g/m*3 14.2 C 0 km/h
324 16-11-2009 16:46:02 14.4 C 10.14 g/m*3 14.4 C 0 km/h
325 16-11-2009 16:58:02 14.3 C 9.95 g/m*3 14.3 C 0 km/h
Sensor: Nr:Datum:Temp:Abs-Feuchte:Windchill:Wind:
Aussen-T/F 326 16-11-2009 17:10:02 14.4 C 10.01 g/m*3 14.4 C 0 km/h
327 16-11-2009 17:22:02 14.5 C 9.83 g/m*3 14.5 C 0 km/h
328 16-11-2009 17:34:02 14.4 C 9.77 g/m*3 14.4 C 0 km/h
329 16-11-2009 17:46:02 14.4 C 9.77 g/m*3 14.4 C 0 km/h
330 16-11-2009 17:58:02 14.3 C 9.71 g/m*3 14.3 C 0 km/h
331 16-11-2009 18:10:02 14.1 C 9.71 g/m*3 14.1 C 0 km/h
332 16-11-2009 18:22:02 14.2 C 9.65 g/m*3 14.2 C 0 km/h
333 16-11-2009 18:34:01 14.3 C 9.58 g/m*3 14.3 C 0 km/h
334 16-11-2009 18:46:02 14.5 C 9.58 g/m*3 14.5 C 0 km/h
335 16-11-2009 18:58:02 14.8 C 9.37 g/m*3 14.8 C 0 km/h
336 16-11-2009 19:10:01 14.8 C 9.25 g/m*3 14.8 C 0 km/h
337 16-11-2009 19:22:02 14.8 C 9.25 g/m*3 14.8 C 0 km/h
338 16-11-2009 19:34:01 14.8 C 9.25 g/m*3 14.8 C 0 km/h
339 16-11-2009 19:46:02 14.7 C 9.32 g/m*3 14.7 C 0 km/h
340 16-11-2009 19:58:02 14.6 C 9.26 g/m*3 14.6 C 0 km/h
341 16-11-2009 20:10:02 14.5 C 9.2 g/m*3 14.5 C 0 km/h
342 16-11-2009 20:22:02 14.5 C 9.33 g/m*3 14.5 C 0 km/h
343 16-11-2009 20:34:03 14.4 C 9.27 g/m*3 14.4 C 0 km/h
344 16-11-2009 20:46:02 14.5 C 9.2 g/m*3 14.5 C 0 km/h
345 16-11-2009 20:58:03 14.6 C 9.01 g/m*3 14.6 C 0 km/h
346 16-11-2009 21:10:01 14.5 C 9.08 g/m*3 14.5 C 0 km/h
347 16-11-2009 21:22:02 14.6 C 9.13 g/m*3 14.6 C 0 km/h
348 16-11-2009 21:34:02 14 C 9.41 g/m*3 14 C 0 km/h
349 16-11-2009 21:46:02 13.6 C 9.53 g/m*3 13.6 C 0 km/h
350 16-11-2009 21:58:02 13.7 C 9.71 g/m*3 13.7 C 0 km/h
Sensor: Nr:Datum:Temp:Abs-Feuchte:Windchill:Wind:
Aussen-T/F 351 16-11-2009 22:10:03 13.6 C 9.77 g/m*3 13.6 C 0 km/h
352 16-11-2009 22:22:02 13.7 C 9.71 g/m*3 13.7 C 0 km/h
353 16-11-2009 22:35:02 13.6 C 9.65 g/m*3 13.6 C 0 km/h
354 16-11-2009 22:47:02 13.8 C 9.65 g/m*3 13.8 C 0 km/h
355 16-11-2009 22:59:02 14 C 9.53 g/m*3 14 C 0 km/h
356 16-11-2009 23:11:02 14 C 9.41 g/m*3 14 C 0 km/h
357 16-11-2009 23:23:02 13.9 C 9.47 g/m*3 13.9 C 0 km/h
358 16-11-2009 23:35:02 13.8 C 9.53 g/m*3 13.8 C 0 km/h
359 16-11-2009 23:47:02 13.7 C 9.47 g/m*3 13.7 C 0 km/h
360 16-11-2009 23:59:02 13.8 C 9.53 g/m*3 13.8 C 0 km/h
361 17-11-2009 00:11:02 14 C 9.29 g/m*3 14 C 0 km/h
362 17-11-2009 00:23:02 14 C 9.17 g/m*3 14 C 0 km/h
363 17-11-2009 00:35:02 13.8 C 9.17 g/m*3 13.8 C 0 km/h
364 17-11-2009 00:47:02 13.8 C 9.17 g/m*3 13.8 C 0 km/h
365 17-11-2009 00:59:02 13.8 C 9.06 g/m*3 13.8 C 0 km/h
366 17-11-2009 01:11:02 13.9 C 8.87 g/m*3 13.9 C 0 km/h
367 17-11-2009 01:23:02 14 C 8.81 g/m*3 14 C 0 km/h
368 17-11-2009 01:35:02 13.8 C 8.82 g/m*3 13.8 C 0 km/h
369 17-11-2009 01:47:02 13.7 C 8.88 g/m*3 13.7 C 0 km/h
370 17-11-2009 01:59:02 13.6 C 8.83 g/m*3 13.6 C 0 km/h
371 17-11-2009 02:11:02 13.8 C 8.94 g/m*3 13.8 C 0 km/h
372 17-11-2009 02:23:02 13.7 C 8.76 g/m*3 13.7 C 0 km/h
373 17-11-2009 02:35:03 13.4 C 8.72 g/m*3 13.4 C 0 km/h
374 17-11-2009 02:47:03 13.2 C 8.73 g/m*3 13.2 C 0 km/h
375 17-11-2009 02:59:03 13 C 8.85 g/m*3 13 C 0 km/h
Sensor: Nr:Datum:Temp:Abs-Feuchte:Windchill:Wind:
Aussen-T/F 376 17-11-2009 03:11:03 12.8 C 9.07 g/m*3 12.8 C 0 km/h
377 17-11-2009 03:23:03 12.8 C 9.18 g/m*3 12.8 C 0 km/h
378 17-11-2009 03:35:03 12.8 C 9.18 g/m*3 12.8 C 0 km/h
379 17-11-2009 03:47:03 12.7 C 9.13 g/m*3 12.7 C 0 km/h
380 17-11-2009 03:59:03 12.8 C 9.3 g/m*3 12.8 C 0 km/h
381 17-11-2009 04:11:03 12.9 C 9.24 g/m*3 12.9 C 0 km/h
382 17-11-2009 04:23:03 12.8 C 9.18 g/m*3 12.8 C 0 km/h
383 17-11-2009 04:35:03 12.6 C 9.18 g/m*3 12.6 C 0 km/h
384 17-11-2009 04:47:03 12.5 C 9.13 g/m*3 12.5 C 0 km/h
385 17-11-2009 04:59:03 12.5 C 9.24 g/m*3 12.5 C 0 km/h
386 17-11-2009 05:11:03 12.4 C 9.29 g/m*3 12.4 C 0 km/h
387 17-11-2009 05:23:03 12.3 C 9.23 g/m*3 12.3 C 0 km/h
388 17-11-2009 05:35:03 12.2 C 9.28 g/m*3 12.2 C 0 km/h
389 17-11-2009 05:47:03 12.3 C 9.34 g/m*3 12.3 C 0 km/h
390 17-11-2009 05:59:03 12.4 C 9.29 g/m*3 12.4 C 0 km/h
391 17-11-2009 06:11:03 12.4 C 9.29 g/m*3 12.4 C 0 km/h
392 17-11-2009 06:23:03 12.2 C 9.17 g/m*3 12.2 C 0 km/h
393 17-11-2009 06:35:03 12.1 C 9.12 g/m*3 12.1 C 0 km/h
394 17-11-2009 06:47:04 12 C 9.17 g/m*3 12 C 0 km/h
395 17-11-2009 06:59:04 12 C 9.27 g/m*3 12 C 0 km/h
396 17-11-2009 07:11:02 11.9 C 9.43 g/m*3 11.9 C 0 km/h
397 17-11-2009 07:23:02 11.8 C 9.47 g/m*3 11.8 C 0 km/h
398 17-11-2009 07:35:02 11.6 C 9.35 g/m*3 11.6 C 0 km/h
399 17-11-2009 07:47:02 11.2 C 9.02 g/m*3 11.2 C 0 km/h
400 17-11-2009 07:59:03 11 C 8.81 g/m*3 11 C 0 km/h
Sensor: Nr:Datum:Temp:Abs-Feuchte:Windchill:Wind:
Aussen-T/F 401 17-11-2009 08:11:01 10.8 C 8.8 g/m*3 10.8 C 0 km/h
402 17-11-2009 08:23:01 10.8 C 8.8 g/m*3 10.8 C 0 km/h
403 17-11-2009 08:35:02 10.8 C 8.8 g/m*3 10.8 C 0 km/h
404 17-11-2009 08:47:02 10.8 C 8.9 g/m*3 10.8 C 0 km/h
405 17-11-2009 08:59:02 10.8 C 8.9 g/m*3 10.8 C 0 km/h
406 17-11-2009 09:11:02 10.9 C 8.95 g/m*3 10.9 C 0 km/h
407 17-11-2009 09:23:02 10 C 8.27 g/m*3 10 C 0 km/h
408 17-11-2009 09:35:02 9.8 C 8.26 g/m*3 9.8 C 0 km/h
409 17-11-2009 09:47:02 9.5 C 8.19 g/m*3 9.5 C 0 km/h
410 17-11-2009 09:59:02 9.4 C 8.23 g/m*3 9.4 C 0 km/h
411 17-11-2009 10:11:02 9.6 C 8.43 g/m*3 9.6 C 0 km/h
412 17-11-2009 10:23:03 9.7 C 8.48 g/m*3 9.7 C 0 km/h
413 17-11-2009 10:35:02 9.5 C 8.37 g/m*3 9.5 C 0 km/h
414 17-11-2009 10:47:02 9.7 C 8.57 g/m*3 9.7 C 0 km/h
415 17-11-2009 10:59:02 9.7 C 8.57 g/m*3 9.7 C 0 km/h
416 17-11-2009 11:11:02 9.8 C 8.72 g/m*3 9.8 C 0 km/h
417 17-11-2009 11:23:02 10.1 C 8.79 g/m*3 10.1 C 0 km/h
418 17-11-2009 11:35:02 10.1 C 8.79 g/m*3 10.1 C 0 km/h
419 17-11-2009 11:47:02 10.2 C 8.85 g/m*3 10.2 C 0 km/h
420 17-11-2009 11:59:02 10.1 C 8.79 g/m*3 10.1 C 0 km/h
421 17-11-2009 12:11:02 10.1 C 8.79 g/m*3 10.1 C 0 km/h
422 17-11-2009 12:23:02 10.2 C 8.85 g/m*3 10.2 C 0 km/h
423 17-11-2009 12:35:02 10.2 C 8.85 g/m*3 10.2 C 0 km/h
424 17-11-2009 12:47:02 10.3 C 8.91 g/m*3 10.3 C 0 km/h
425 17-11-2009 12:59:02 10.3 C 8.91 g/m*3 10.3 C 0 km/h
Sensor: Nr:Datum:Temp:Abs-Feuchte:Windchill:Wind:
Aussen-T/F 426 17-11-2009 13:11:01 10.2 C 8.76 g/m*3 10.2 C 0 km/h
427 17-11-2009 13:23:02 10.4 C 8.87 g/m*3 10.4 C 0 km/h
428 17-11-2009 13:35:01 10.1 C 8.7 g/m*3 10.1 C 0 km/h
429 17-11-2009 13:47:02 10.3 C 8.81 g/m*3 10.3 C 0 km/h
430 17-11-2009 13:59:02 10.1 C 8.61 g/m*3 10.1 C 0 km/h
431 17-11-2009 14:11:01 10.2 C 8.66 g/m*3 10.2 C 0 km/h
432 17-11-2009 14:23:02 10.3 C 8.62 g/m*3 10.3 C 0 km/h
433 17-11-2009 14:35:01 10.4 C 8.67 g/m*3 10.4 C 0 km/h
434 17-11-2009 14:47:03 10.6 C 8.88 g/m*3 10.6 C 0 km/h
435 17-11-2009 14:59:03 10.6 C 8.88 g/m*3 10.6 C 0 km/h
436 17-11-2009 15:11:02 10.4 C 8.67 g/m*3 10.4 C 0 km/h
437 17-11-2009 15:23:02 10.4 C 8.67 g/m*3 10.4 C 0 km/h
438 17-11-2009 15:35:02 10.2 C 8.47 g/m*3 10.2 C 0 km/h
439 17-11-2009 15:47:02 10.1 C 8.42 g/m*3 10.1 C 0 km/h
440 17-11-2009 15:59:02 10 C 8.27 g/m*3 10 C 0 km/h
441 17-11-2009 16:11:02 9.8 C 8.26 g/m*3 9.8 C 0 km/h
442 17-11-2009 16:23:02 9.7 C 8.11 g/m*3 9.7 C 0 km/h
443 17-11-2009 16:35:01 9.6 C 8.06 g/m*3 9.6 C 0 km/h
444 17-11-2009 16:47:02 9.6 C 8.06 g/m*3 9.6 C 0 km/h
445 17-11-2009 16:59:02 9.6 C 8.06 g/m*3 9.6 C 0 km/h
446 17-11-2009 17:11:01 9.5 C 8.1 g/m*3 9.5 C 0 km/h
447 17-11-2009 17:23:02 9.5 C 8.1 g/m*3 9.5 C 0 km/h
448 17-11-2009 17:35:01 9.5 C 8.1 g/m*3 9.5 C 0 km/h
449 17-11-2009 17:47:02 9.5 C 8.1 g/m*3 9.5 C 0 km/h
450 17-11-2009 17:59:02 9.5 C 8.1 g/m*3 9.5 C 0 km/h
Sensor: Nr:Datum:Temp:Abs-Feuchte:Windchill:Wind:
Aussen-T/F 451 17-11-2009 18:11:02 9.4 C 7.96 g/m*3 9.4 C 0 km/h
452 17-11-2009 18:23:02 9.5 C 8.01 g/m*3 9.5 C 0 km/h
453 17-11-2009 18:35:03 9.5 C 7.92 g/m*3 9.5 C 0 km/h
454 17-11-2009 18:47:02 9.6 C 7.97 g/m*3 9.6 C 0 km/h
455 17-11-2009 18:59:02 9.6 C 7.88 g/m*3 9.6 C 0 km/h
456 17-11-2009 19:11:01 9.8 C 7.7 g/m*3 9.8 C 0 km/h
457 17-11-2009 19:23:02 9.9 C 7.66 g/m*3 9.9 C 0 km/h
458 17-11-2009 19:35:02 9.8 C 7.7 g/m*3 9.8 C 0 km/h
459 17-11-2009 19:47:02 9.7 C 7.65 g/m*3 9.7 C 0 km/h
460 17-11-2009 19:59:02 9.7 C 7.65 g/m*3 9.7 C 0 km/h
461 17-11-2009 20:11:02 9.8 C 7.61 g/m*3 9.8 C 0 km/h
462 17-11-2009 20:23:02 9.8 C 7.61 g/m*3 9.8 C 0 km/h
463 17-11-2009 20:35:02 9.8 C 7.52 g/m*3 9.8 C 0 km/h
464 17-11-2009 20:47:01 9.8 C 7.52 g/m*3 9.8 C 0 km/h
465 17-11-2009 20:59:01 9.9 C 7.56 g/m*3 9.9 C 0 km/h
466 17-11-2009 21:11:02 9.7 C 7.47 g/m*3 9.7 C 0 km/h
467 17-11-2009 21:23:01 9.8 C 7.52 g/m*3 9.8 C 0 km/h
468 17-11-2009 21:35:01 9.6 C 7.42 g/m*3 9.6 C 0 km/h
469 17-11-2009 21:48:02 9.5 C 7.28 g/m*3 9.5 C 0 km/h
470 17-11-2009 22:00:02 9.5 C 7.37 g/m*3 9.5 C 0 km/h
471 17-11-2009 22:12:02 9.6 C 7.33 g/m*3 9.6 C 0 km/h
472 17-11-2009 22:24:02 9.5 C 7.19 g/m*3 9.5 C 0 km/h
473 17-11-2009 22:36:02 9.4 C 7.15 g/m*3 9.4 C 0 km/h
474 17-11-2009 22:48:02 9.2 C 7.05 g/m*3 9.2 C 0 km/h
475 17-11-2009 23:00:02 9.5 C 7.28 g/m*3 9.5 C 0 km/h
Sensor: Nr:Datum:Temp:Abs-Feuchte:Windchill:Wind:
Aussen-T/F 476 17-11-2009 23:12:02 9.7 C 7.19 g/m*3 9.7 C 0 km/h
477 17-11-2009 23:24:03 9.6 C 7.15 g/m*3 9.6 C 0 km/h
478 17-11-2009 23:36:03 9.6 C 7.15 g/m*3 9.6 C 0 km/h
479 17-11-2009 23:48:03 9.4 C 7.05 g/m*3 9.4 C 0 km/h
480 18-11-2009 00:00:03 9.4 C 7.05 g/m*3 9.4 C 0 km/h
481 18-11-2009 00:12:03 9.5 C 7.1 g/m*3 9.5 C 0 km/h
482 18-11-2009 00:24:03 9.6 C 7.05 g/m*3 9.6 C 0 km/h
483 18-11-2009 00:36:03 9.5 C 7.01 g/m*3 9.5 C 0 km/h
484 18-11-2009 00:48:03 9.5 C 7.1 g/m*3 9.5 C 0 km/h
485 18-11-2009 01:00:03 9.4 C 7.05 g/m*3 9.4 C 0 km/h
486 18-11-2009 01:12:03 9.3 C 7.01 g/m*3 9.3 C 0 km/h
487 18-11-2009 01:24:03 9.4 C 7.05 g/m*3 9.4 C 0 km/h
488 18-11-2009 01:36:03 9.3 C 6.92 g/m*3 9.3 C 0 km/h
489 18-11-2009 01:48:03 9.2 C 6.97 g/m*3 9.2 C 0 km/h
490 18-11-2009 02:00:03 9 C 6.88 g/m*3 9 C 0 km/h
491 18-11-2009 02:12:03 9.2 C 7.05 g/m*3 9.2 C 0 km/h
492 18-11-2009 02:24:03 9.3 C 6.92 g/m*3 9.3 C 0 km/h
493 18-11-2009 02:36:03 9.2 C 6.88 g/m*3 9.2 C 0 km/h
494 18-11-2009 02:48:03 9.1 C 6.83 g/m*3 9.1 C 0 km/h
495 18-11-2009 03:00:03 9.1 C 6.83 g/m*3 9.1 C 0 km/h
496 18-11-2009 03:12:04 8.9 C 6.92 g/m*3 8.9 C 0 km/h
497 18-11-2009 03:24:04 9 C 6.88 g/m*3 9 C 0 km/h
498 18-11-2009 03:36:04 8.8 C 6.88 g/m*3 8.8 C 0 km/h
499 18-11-2009 03:48:04 8.6 C 6.96 g/m*3 8.6 C 0 km/h
500 18-11-2009 04:00:04 8.7 C 7.01 g/m*3 8.7 C 0 km/h
Sensor: Nr:Datum:Temp:Abs-Feuchte:Windchill:Wind:
Aussen-T/F 501 18-11-2009 04:12:04 8.8 C 7.05 g/m*3 8.8 C 0 km/h
502 18-11-2009 04:24:04 8.7 C 7.01 g/m*3 8.7 C 0 km/h
503 18-11-2009 04:36:04 8.6 C 7.05 g/m*3 8.6 C 0 km/h
504 18-11-2009 04:48:04 8.5 C 7 g/m*3 8.5 C 0 km/h
505 18-11-2009 05:00:04 8.5 C 7.09 g/m*3 8.5 C 0 km/h
506 18-11-2009 05:12:04 8.8 C 7.14 g/m*3 8.8 C 0 km/h
507 18-11-2009 05:24:04 9 C 7.05 g/m*3 9 C 0 km/h
508 18-11-2009 05:36:04 8.9 C 6.92 g/m*3 8.9 C 0 km/h
509 18-11-2009 05:48:04 8.9 C 6.92 g/m*3 8.9 C 0 km/h
510 18-11-2009 06:00:04 9 C 6.79 g/m*3 9 C 0 km/h
511 18-11-2009 06:12:03 9 C 6.79 g/m*3 9 C 0 km/h
512 18-11-2009 06:24:03 8.8 C 6.79 g/m*3 8.8 C 0 km/h
513 18-11-2009 06:36:03 8.7 C 6.83 g/m*3 8.7 C 0 km/h
514 18-11-2009 06:48:02 8.7 C 6.75 g/m*3 8.7 C 0 km/h
515 18-11-2009 07:00:02 8.4 C 6.62 g/m*3 8.4 C 0 km/h
516 18-11-2009 07:12:03 8.3 C 6.66 g/m*3 8.3 C 0 km/h
517 18-11-2009 07:24:02 8 C 6.7 g/m*3 8 C 0 km/h
518 18-11-2009 07:36:02 8.4 C 6.96 g/m*3 8.4 C 0 km/h
519 18-11-2009 07:48:01 8.3 C 6.74 g/m*3 8.3 C 0 km/h
520 18-11-2009 08:00:01 8.5 C 6.66 g/m*3 8.5 C 0 km/h
521 18-11-2009 08:12:02 8.8 C 6.61 g/m*3 8.8 C 0 km/h
522 18-11-2009 08:24:01 9 C 6.52 g/m*3 9 C 0 km/h
523 18-11-2009 08:36:02 9.1 C 6.39 g/m*3 9.1 C 0 km/h
524 18-11-2009 08:48:02 9.4 C 6.51 g/m*3 9.4 C 0 km/h
525 18-11-2009 09:00:02 9.7 C 6.36 g/m*3 9.7 C 0 km/h
Sensor: Nr:Datum:Temp:Abs-Feuchte:Windchill:Wind:
Aussen-T/F 526 18-11-2009 09:12:02 9.7 C 6.18 g/m*3 9.7 C 0 km/h
527 18-11-2009 09:24:01 9.7 C 5.9 g/m*3 9.7 C 0 km/h
528 18-11-2009 09:36:02 9.6 C 5.86 g/m*3 9.6 C 0 km/h
529 18-11-2009 09:48:01 9.6 C 5.86 g/m*3 9.6 C 0 km/h
530 18-11-2009 10:00:01 9.9 C 6.07 g/m*3 9.9 C 0 km/h
531 18-11-2009 10:12:02 10.4 C 5.98 g/m*3 10.4 C 0 km/h
532 18-11-2009 10:24:02 10.6 C 5.95 g/m*3 10.6 C 0 km/h
533 18-11-2009 10:36:02 10.7 C 5.8 g/m*3 10.7 C 0 km/h
534 18-11-2009 10:48:02 10.9 C 5.67 g/m*3 10.9 C 0 km/h
535 18-11-2009 11:00:02 11 C 5.71 g/m*3 11 C 0 km/h
536 18-11-2009 11:12:02 11.1 C 5.74 g/m*3 11.1 C 0 km/h
537 18-11-2009 11:24:02 11.2 C 5.68 g/m*3 11.2 C 0 km/h
538 18-11-2009 11:36:02 11.2 C 5.57 g/m*3 11.2 C 0 km/h
539 18-11-2009 11:48:01 11.4 C 5.44 g/m*3 11.4 C 0 km/h
540 18-11-2009 12:00:01 11.7 C 5.44 g/m*3 11.7 C 0 km/h
541 18-11-2009 12:12:02 11.9 C 5.51 g/m*3 11.9 C 0 km/h
542 18-11-2009 12:24:01 11.8 C 5.16 g/m*3 11.8 C 0 km/h
543 18-11-2009 12:36:01 11.8 C 5.37 g/m*3 11.8 C 0 km/h
544 18-11-2009 12:48:01 11.7 C 5.23 g/m*3 11.7 C 0 km/h
545 18-11-2009 13:00:01 11.9 C 5.19 g/m*3 11.9 C 0 km/h
546 18-11-2009 13:12:02 12.3 C 5.21 g/m*3 12.3 C 0 km/h
547 18-11-2009 13:24:01 12.2 C 5.29 g/m*3 12.2 C 0 km/h
548 18-11-2009 13:36:02 12 C 5.12 g/m*3 12 C 0 km/h
549 18-11-2009 13:48:01 11.9 C 5.3 g/m*3 11.9 C 0 km/h
550 18-11-2009 14:00:01 11.9 C 5.4 g/m*3 11.9 C 0 km/h
Sensor: Nr:Datum:Temp:Abs-Feuchte:Windchill:Wind:
Aussen-T/F 551 18-11-2009 14:12:02 11.9 C 5.3 g/m*3 11.9 C 0 km/h
552 18-11-2009 14:24:01 11.9 C 5.3 g/m*3 11.9 C 0 km/h
553 18-11-2009 14:36:02 11.8 C 5.37 g/m*3 11.8 C 0 km/h
554 18-11-2009 14:48:01 11.8 C 5.26 g/m*3 11.8 C 0 km/h
555 18-11-2009 15:00:01 11.8 C 5.37 g/m*3 11.8 C 0 km/h
556 18-11-2009 15:12:02 11.7 C 5.33 g/m*3 11.7 C 0 km/h
557 18-11-2009 15:24:01 11.6 C 5.3 g/m*3 11.6 C 0 km/h
558 18-11-2009 15:36:02 11.5 C 5.27 g/m*3 11.5 C 0 km/h
559 18-11-2009 15:48:01 11.4 C 5.23 g/m*3 11.4 C 0 km/h
560 18-11-2009 16:00:01 11.3 C 5.41 g/m*3 11.3 C 0 km/h
561 18-11-2009 16:12:02 10.9 C 5.47 g/m*3 10.9 C 0 km/h
562 18-11-2009 16:24:02 10.9 C 5.47 g/m*3 10.9 C 0 km/h
563 18-11-2009 16:36:02 11.1 C 5.44 g/m*3 11.1 C 0 km/h
564 18-11-2009 16:48:01 11.1 C 5.44 g/m*3 11.1 C 0 km/h
565 18-11-2009 17:00:01 11.1 C 5.44 g/m*3 11.1 C 0 km/h
566 18-11-2009 17:12:02 11.1 C 5.44 g/m*3 11.1 C 0 km/h
567 18-11-2009 17:24:02 11.2 C 5.47 g/m*3 11.2 C 0 km/h
568 18-11-2009 17:36:01 11.2 C 5.57 g/m*3 11.2 C 0 km/h
569 18-11-2009 17:48:01 11.4 C 5.65 g/m*3 11.4 C 0 km/h
570 18-11-2009 18:00:01 11 C 5.61 g/m*3 11 C 0 km/h
571 18-11-2009 18:12:02 11 C 5.71 g/m*3 11 C 0 km/h
572 18-11-2009 18:24:02 10.9 C 5.87 g/m*3 10.9 C 0 km/h
573 18-11-2009 18:36:01 11 C 5.81 g/m*3 11 C 0 km/h
574 18-11-2009 18:48:02 11.1 C 5.84 g/m*3 11.1 C 0 km/h
575 18-11-2009 19:00:02 11.4 C 5.95 g/m*3 11.4 C 0 km/h
Sensor: Nr:Datum:Temp:Abs-Feuchte:Windchill:Wind:
Aussen-T/F 576 18-11-2009 19:12:01 11.4 C 5.95 g/m*3 11.4 C 0 km/h
577 18-11-2009 19:24:02 11.3 C 5.92 g/m*3 11.3 C 0 km/h
578 18-11-2009 19:36:01 11.3 C 5.92 g/m*3 11.3 C 0 km/h
579 18-11-2009 19:48:03 11.3 C 5.92 g/m*3 11.3 C 0 km/h
580 18-11-2009 20:00:03 11.3 C 5.92 g/m*3 11.3 C 0 km/h
581 18-11-2009 20:12:02 11.3 C 6.02 g/m*3 11.3 C 0 km/h
582 18-11-2009 20:24:02 11.3 C 6.02 g/m*3 11.3 C 0 km/h
583 18-11-2009 20:36:02 11.1 C 6.04 g/m*3 11.1 C 0 km/h
584 18-11-2009 20:48:02 10.9 C 6.07 g/m*3 10.9 C 0 km/h
585 18-11-2009 21:00:02 11 C 6.11 g/m*3 11 C 0 km/h
586 18-11-2009 21:12:02 11 C 6.11 g/m*3 11 C 0 km/h
587 18-11-2009 21:24:02 10.8 C 6.13 g/m*3 10.8 C 0 km/h
588 18-11-2009 21:36:02 10.6 C 6.15 g/m*3 10.6 C 0 km/h
589 18-11-2009 21:48:02 10.3 C 6.13 g/m*3 10.3 C 0 km/h
590 18-11-2009 22:00:02 10.3 C 6.22 g/m*3 10.3 C 0 km/h
591 18-11-2009 22:13:02 10.1 C 6.24 g/m*3 10.1 C 0 km/h
592 18-11-2009 22:25:02 10.2 C 6.28 g/m*3 10.2 C 0 km/h
593 18-11-2009 22:37:02 10.1 C 6.24 g/m*3 10.1 C 0 km/h
594 18-11-2009 22:49:02 10 C 6.3 g/m*3 10 C 0 km/h
595 18-11-2009 23:01:02 9.9 C 6.44 g/m*3 9.9 C 0 km/h
596 18-11-2009 23:13:02 10.1 C 6.43 g/m*3 10.1 C 0 km/h
597 18-11-2009 23:25:02 10.2 C 6.47 g/m*3 10.2 C 0 km/h
598 18-11-2009 23:37:02 10.3 C 6.42 g/m*3 10.3 C 0 km/h
599 18-11-2009 23:49:02 10.3 C 6.42 g/m*3 10.3 C 0 km/h
600 19-11-2009 00:01:02 10.1 C 6.43 g/m*3 10.1 C 0 km/h
Sensor: Nr:Datum:Temp:Abs-Feuchte:Windchill:Wind:
Aussen-T/F 601 19-11-2009 00:13:03 10 C 6.48 g/m*3 10 C 0 km/h
602 19-11-2009 00:25:03 9.9 C 6.63 g/m*3 9.9 C 0 km/h
603 19-11-2009 00:37:03 9.7 C 6.64 g/m*3 9.7 C 0 km/h
604 19-11-2009 00:49:03 9.5 C 6.64 g/m*3 9.5 C 0 km/h
605 19-11-2009 01:01:03 9.9 C 6.82 g/m*3 9.9 C 0 km/h
606 19-11-2009 01:13:03 10 C 6.77 g/m*3 10 C 0 km/h
607 19-11-2009 01:25:03 9.9 C 6.82 g/m*3 9.9 C 0 km/h
608 19-11-2009 01:37:03 9.9 C 6.82 g/m*3 9.9 C 0 km/h
609 19-11-2009 01:49:03 9.6 C 6.78 g/m*3 9.6 C 0 km/h
610 19-11-2009 02:01:03 9.7 C 6.91 g/m*3 9.7 C 0 km/h
611 19-11-2009 02:13:03 10.2 C 6.95 g/m*3 10.2 C 0 km/h
612 19-11-2009 02:25:03 10.4 C 6.84 g/m*3 10.4 C 0 km/h
613 19-11-2009 02:37:03 10.6 C 6.93 g/m*3 10.6 C 0 km/h
614 19-11-2009 02:49:03 10.6 C 6.83 g/m*3 10.6 C 0 km/h
615 19-11-2009 03:01:03 10.4 C 6.84 g/m*3 10.4 C 0 km/h
616 19-11-2009 03:13:03 10.5 C 6.89 g/m*3 10.5 C 0 km/h
617 19-11-2009 03:25:03 10.6 C 6.93 g/m*3 10.6 C 0 km/h
618 19-11-2009 03:37:03 10.6 C 6.83 g/m*3 10.6 C 0 km/h
619 19-11-2009 03:49:03 10.6 C 6.83 g/m*3 10.6 C 0 km/h
620 19-11-2009 04:01:04 10.4 C 6.75 g/m*3 10.4 C 0 km/h
621 19-11-2009 04:13:04 10 C 6.67 g/m*3 10 C 0 km/h
622 19-11-2009 04:25:04 9.8 C 6.87 g/m*3 9.8 C 0 km/h
623 19-11-2009 04:37:04 9.7 C 6.82 g/m*3 9.7 C 0 km/h
624 19-11-2009 04:49:04 9.3 C 6.74 g/m*3 9.3 C 0 km/h
625 19-11-2009 05:01:04 9.3 C 6.92 g/m*3 9.3 C 0 km/h
Sensor: Nr:Datum:Temp:Abs-Feuchte:Windchill:Wind:
Aussen-T/F 626 19-11-2009 05:13:04 9.2 C 6.88 g/m*3 9.2 C 0 km/h
627 19-11-2009 05:25:04 9.1 C 6.83 g/m*3 9.1 C 0 km/h
628 19-11-2009 05:37:04 9.2 C 6.88 g/m*3 9.2 C 0 km/h
629 19-11-2009 05:49:04 9.3 C 6.92 g/m*3 9.3 C 0 km/h
630 19-11-2009 06:01:04 9.4 C 6.96 g/m*3 9.4 C 0 km/h
631 19-11-2009 06:13:04 9.4 C 6.96 g/m*3 9.4 C 0 km/h
632 19-11-2009 06:25:04 9.6 C 7.05 g/m*3 9.6 C 0 km/h
633 19-11-2009 06:37:04 9.7 C 7.01 g/m*3 9.7 C 0 km/h
634 19-11-2009 06:49:04 9.7 C 7.01 g/m*3 9.7 C 0 km/h
635 19-11-2009 07:01:03 9.8 C 6.96 g/m*3 9.8 C 0 km/h
636 19-11-2009 07:13:03 9.7 C 6.91 g/m*3 9.7 C 0 km/h
637 19-11-2009 07:25:02 9.8 C 6.87 g/m*3 9.8 C 0 km/h
638 19-11-2009 07:37:02 9.7 C 6.82 g/m*3 9.7 C 0 km/h
639 19-11-2009 07:49:02 9.8 C 6.87 g/m*3 9.8 C 0 km/h
640 19-11-2009 08:01:02 9.7 C 6.82 g/m*3 9.7 C 0 km/h
641 19-11-2009 08:13:02 9.8 C 6.87 g/m*3 9.8 C 0 km/h
642 19-11-2009 08:25:01 9.9 C 6.82 g/m*3 9.9 C 0 km/h
643 19-11-2009 08:37:02 9.9 C 6.72 g/m*3 9.9 C 0 km/h
644 19-11-2009 08:49:02 9.9 C 6.72 g/m*3 9.9 C 0 km/h
645 19-11-2009 09:01:02 10 C 6.67 g/m*3 10 C 0 km/h
646 19-11-2009 09:13:02 10.1 C 6.62 g/m*3 10.1 C 0 km/h
647 19-11-2009 09:25:02 10 C 6.58 g/m*3 10 C 0 km/h
648 19-11-2009 09:37:02 9.8 C 6.68 g/m*3 9.8 C 0 km/h
649 19-11-2009 09:49:02 9.7 C 6.64 g/m*3 9.7 C 0 km/h
650 19-11-2009 10:01:02 9.6 C 6.6 g/m*3 9.6 C 0 km/h
Sensor: Nr:Datum:Temp:Abs-Feuchte:Windchill:Wind:
Aussen-T/F 651 19-11-2009 10:13:02 9.8 C 6.59 g/m*3 9.8 C 0 km/h
652 19-11-2009 10:25:03 9.8 C 6.49 g/m*3 9.8 C 0 km/h
653 19-11-2009 10:37:02 9.9 C 6.35 g/m*3 9.9 C 0 km/h
654 19-11-2009 10:49:02 10 C 6.3 g/m*3 10 C 0 km/h
655 19-11-2009 11:01:02 10.1 C 6.24 g/m*3 10.1 C 0 km/h
656 19-11-2009 11:13:02 10.2 C 6.19 g/m*3 10.2 C 0 km/h
657 19-11-2009 11:25:03 10.5 C 6.21 g/m*3 10.5 C 0 km/h
658 19-11-2009 11:37:02 10.8 C 6.23 g/m*3 10.8 C 0 km/h
659 19-11-2009 11:49:03 10.9 C 6.27 g/m*3 10.9 C 0 km/h
660 19-11-2009 12:01:02 11 C 6.31 g/m*3 11 C 0 km/h
661 19-11-2009 12:13:02 11.5 C 6.4 g/m*3 11.5 C 0 km/h
662 19-11-2009 12:25:02 12.2 C 5.94 g/m*3 12.2 C 0 km/h
663 19-11-2009 12:37:02 12.6 C 5.97 g/m*3 12.6 C 0 km/h
664 19-11-2009 12:49:02 12.8 C 5.94 g/m*3 12.8 C 0 km/h
665 19-11-2009 13:01:02 13.2 C 5.74 g/m*3 13.2 C 0 km/h
666 19-11-2009 13:13:02 13.5 C 5.85 g/m*3 13.5 C 0 km/h
667 19-11-2009 13:25:02 14 C 5.67 g/m*3 14 C 0 km/h
668 19-11-2009 13:37:02 14.2 C 5.62 g/m*3 14.2 C 0 km/h
669 19-11-2009 13:49:02 14.7 C 5.79 g/m*3 14.7 C 0 km/h
670 19-11-2009 14:01:01 14.9 C 5.86 g/m*3 14.9 C 0 km/h
671 19-11-2009 14:13:01 15.2 C 5.97 g/m*3 15.2 C 0 km/h
672 19-11-2009 14:25:02 15.4 C 6.04 g/m*3 15.4 C 0 km/h
673 19-11-2009 14:37:01 14.8 C 5.83 g/m*3 14.8 C 0 km/h
674 19-11-2009 14:49:02 13.9 C 5.99 g/m*3 13.9 C 0 km/h
675 19-11-2009 15:01:01 13.3 C 6.12 g/m*3 13.3 C 0 km/h
Sensor: Nr:Datum:Temp:Abs-Feuchte:Windchill:Wind:
Aussen-T/F 676 19-11-2009 15:13:01 12.7 C 6.23 g/m*3 12.7 C 0 km/h
677 19-11-2009 15:25:02 12.3 C 6.3 g/m*3 12.3 C 0 km/h
678 19-11-2009 15:37:01 12.1 C 6.33 g/m*3 12.1 C 0 km/h
679 19-11-2009 15:49:02 11.9 C 6.35 g/m*3 11.9 C 0 km/h
680 19-11-2009 16:01:02 11.5 C 6.51 g/m*3 11.5 C 0 km/h
681 19-11-2009 16:13:02 11.1 C 6.45 g/m*3 11.1 C 0 km/h
682 19-11-2009 16:25:02 11 C 6.41 g/m*3 11 C 0 km/h
683 19-11-2009 16:37:03 10.6 C 6.44 g/m*3 10.6 C 0 km/h
684 19-11-2009 16:49:02 10.2 C 6.47 g/m*3 10.2 C 0 km/h
685 19-11-2009 17:01:01 10 C 6.39 g/m*3 10 C 0 km/h
686 19-11-2009 17:13:01 9.7 C 6.45 g/m*3 9.7 C 0 km/h
687 19-11-2009 17:25:02 9.6 C 6.41 g/m*3 9.6 C 0 km/h
688 19-11-2009 17:37:02 9.2 C 6.43 g/m*3 9.2 C 0 km/h
689 19-11-2009 17:49:02 9 C 6.44 g/m*3 9 C 0 km/h
690 19-11-2009 18:01:03 9 C 6.52 g/m*3 9 C 0 km/h
691 19-11-2009 18:13:03 8.7 C 6.49 g/m*3 8.7 C 0 km/h
692 19-11-2009 18:25:02 8.6 C 6.44 g/m*3 8.6 C 0 km/h
693 19-11-2009 18:37:02 8.2 C 6.36 g/m*3 8.2 C 0 km/h
694 19-11-2009 18:49:02 8.2 C 6.45 g/m*3 8.2 C 0 km/h
695 19-11-2009 19:01:02 8.1 C 6.49 g/m*3 8.1 C 0 km/h
696 19-11-2009 19:13:02 7.9 C 6.49 g/m*3 7.9 C 0 km/h
697 19-11-2009 19:25:01 7.8 C 6.53 g/m*3 7.8 C 0 km/h
698 19-11-2009 19:37:02 7.6 C 6.44 g/m*3 7.6 C 0 km/h
699 19-11-2009 19:49:02 7.9 C 6.65 g/m*3 7.9 C 0 km/h
700 19-11-2009 20:01:02 8.2 C 6.53 g/m*3 8.2 C 0 km/h
Sensor: Nr:Datum:Temp:Abs-Feuchte:Windchill:Wind:
Aussen-T/F 701 19-11-2009 20:13:02 8.1 C 6.49 g/m*3 8.1 C 0 km/h
702 19-11-2009 20:25:02 7.8 C 6.45 g/m*3 7.8 C 0 km/h
703 19-11-2009 20:37:02 7.4 C 6.36 g/m*3 7.4 C 0 km/h
704 19-11-2009 20:49:02 7.2 C 6.36 g/m*3 7.2 C 0 km/h
705 19-11-2009 21:01:03 6.8 C 6.27 g/m*3 6.8 C 0 km/h
706 19-11-2009 21:13:03 6.6 C 6.27 g/m*3 6.6 C 0 km/h
707 19-11-2009 21:25:02 6.4 C 6.26 g/m*3 6.4 C 0 km/h
708 19-11-2009 21:37:02 6.4 C 6.41 g/m*3 6.4 C 0 km/h
709 19-11-2009 21:49:02 6.3 C 6.37 g/m*3 6.3 C 0 km/h
710 19-11-2009 22:01:02 6.3 C 6.37 g/m*3 6.3 C 0 km/h
711 19-11-2009 22:13:03 6 C 6.24 g/m*3 6 C 0 km/h
712 19-11-2009 22:25:01 6 C 6.24 g/m*3 6 C 0 km/h
713 19-11-2009 22:37:02 5.7 C 6.19 g/m*3 5.7 C 0 km/h
714 19-11-2009 22:50:01 5.8 C 6.3 g/m*3 5.8 C 0 km/h
715 19-11-2009 23:02:01 5.6 C 6.22 g/m*3 5.6 C 0 km/h
716 19-11-2009 23:14:01 5.6 C 6.22 g/m*3 5.6 C 0 km/h
717 19-11-2009 23:26:01 5.5 C 6.25 g/m*3 5.5 C 0 km/h
718 19-11-2009 23:38:01 5.2 C 6.13 g/m*3 5.2 C 0 km/h
719 19-11-2009 23:50:01 5.2 C 6.13 g/m*3 5.2 C 0 km/h
720 20-11-2009 00:02:01 5.1 C 6.09 g/m*3 5.1 C 0 km/h
721 20-11-2009 00:14:01 5 C 6.05 g/m*3 5 C 0 km/h
722 20-11-2009 00:26:02 4.9 C 6.08 g/m*3 4.9 C 0 km/h
723 20-11-2009 00:38:02 4.8 C 6.04 g/m*3 4.8 C 0 km/h
724 20-11-2009 00:50:02 4.8 C 6.1 g/m*3 4.8 C 0 km/h
725 20-11-2009 01:02:02 4.7 C 6.06 g/m*3 4.7 C 0 km/h
Sensor: Nr:Datum:Temp:Abs-Feuchte:Windchill:Wind:
Aussen-T/F 726 20-11-2009 01:14:02 4.7 C 6.06 g/m*3 4.7 C 0 km/h
727 20-11-2009 01:26:02 4.6 C 6.02 g/m*3 4.6 C 0 km/h
728 20-11-2009 01:38:02 4.5 C 5.98 g/m*3 4.5 C 0 km/h
729 20-11-2009 01:50:02 4.4 C 5.94 g/m*3 4.4 C 0 km/h
730 20-11-2009 02:02:02 4.3 C 5.9 g/m*3 4.3 C 0 km/h
731 20-11-2009 02:14:02 4.2 C 5.86 g/m*3 4.2 C 0 km/h
732 20-11-2009 02:26:02 4.2 C 5.86 g/m*3 4.2 C 0 km/h
733 20-11-2009 02:38:02 4.2 C 5.93 g/m*3 4.2 C 0 km/h
734 20-11-2009 02:50:02 4.2 C 5.93 g/m*3 4.2 C 0 km/h
735 20-11-2009 03:02:02 4 C 5.85 g/m*3 4 C 0 km/h
736 20-11-2009 03:14:02 4 C 5.85 g/m*3 4 C 0 km/h
737 20-11-2009 03:26:02 3.9 C 5.87 g/m*3 3.9 C 0 km/h
738 20-11-2009 03:38:02 3.8 C 5.83 g/m*3 3.8 C 0 km/h
739 20-11-2009 03:50:02 3.7 C 5.8 g/m*3 3.7 C 0 km/h
740 20-11-2009 04:02:02 3.8 C 5.83 g/m*3 3.8 C 0 km/h
741 20-11-2009 04:14:02 3.6 C 5.76 g/m*3 3.6 C 0 km/h
742 20-11-2009 04:26:03 3.4 C 5.68 g/m*3 3.4 C 0 km/h
743 20-11-2009 04:38:03 3.5 C 5.72 g/m*3 3.5 C 0 km/h
744 20-11-2009 04:50:03 3.6 C 5.76 g/m*3 3.6 C 0 km/h
745 20-11-2009 05:02:03 3.5 C 5.72 g/m*3 3.5 C 0 km/h
746 20-11-2009 05:14:03 3.5 C 5.78 g/m*3 3.5 C 0 km/h
747 20-11-2009 05:26:03 3.4 C 5.74 g/m*3 3.4 C 0 km/h
748 20-11-2009 05:38:03 3.3 C 5.7 g/m*3 3.3 C 0 km/h
749 20-11-2009 05:50:03 3.4 C 5.74 g/m*3 3.4 C 0 km/h
750 20-11-2009 06:02:03 3.2 C 5.66 g/m*3 3.2 C 0 km/h
Sensor: Nr:Datum:Temp:Abs-Feuchte:Windchill:Wind:
Aussen-T/F 751 20-11-2009 06:14:03 3.1 C 5.63 g/m*3 3.1 C 0 km/h
752 20-11-2009 06:26:03 3.1 C 5.63 g/m*3 3.1 C 0 km/h
753 20-11-2009 06:38:03 3 C 5.59 g/m*3 3 C 0 km/h
754 20-11-2009 06:50:03 3 C 5.59 g/m*3 3 C 0 km/h
755 20-11-2009 07:02:02 3.1 C 5.69 g/m*3 3.1 C 0 km/h
756 20-11-2009 07:14:02 3.1 C 5.69 g/m*3 3.1 C 0 km/h
757 20-11-2009 07:26:01 3.1 C 5.69 g/m*3 3.1 C 0 km/h
758 20-11-2009 07:38:02 3 C 5.65 g/m*3 3 C 0 km/h
759 20-11-2009 07:50:02 2.8 C 5.57 g/m*3 2.8 C 0 km/h
760 20-11-2009 08:02:02 2.8 C 5.57 g/m*3 2.8 C 0 km/h
761 20-11-2009 08:14:02 2.8 C 5.57 g/m*3 2.8 C 0 km/h
762 20-11-2009 08:26:02 2.8 C 5.57 g/m*3 2.8 C 0 km/h
763 20-11-2009 08:38:02 2.9 C 5.61 g/m*3 2.9 C 0 km/h
764 20-11-2009 08:50:02 3 C 5.65 g/m*3 3 C 0 km/h
765 20-11-2009 09:02:02 3.1 C 5.69 g/m*3 3.1 C 0 km/h
766 20-11-2009 09:14:03 3.2 C 5.72 g/m*3 3.2 C 0 km/h
767 20-11-2009 09:26:02 3.4 C 5.8 g/m*3 3.4 C 0 km/h
768 20-11-2009 09:38:02 3.6 C 5.88 g/m*3 3.6 C 0 km/h
769 20-11-2009 09:50:01 3.9 C 6 g/m*3 3.9 C 0 km/h
770 20-11-2009 10:02:01 4.3 C 6.16 g/m*3 4.3 C 0 km/h
771 20-11-2009 10:14:01 4.3 C 6.16 g/m*3 4.3 C 0 km/h
772 20-11-2009 10:26:02 4.6 C 6.29 g/m*3 4.6 C 0 km/h
773 20-11-2009 10:38:01 5.4 C 6.63 g/m*3 5.4 C 0 km/h
774 20-11-2009 10:50:02 5.7 C 6.76 g/m*3 5.7 C 0 km/h
775 20-11-2009 11:02:02 5.6 C 6.72 g/m*3 5.6 C 0 km/h
Sensor: Nr:Datum:Temp:Abs-Feuchte:Windchill:Wind:
Aussen-T/F 776 20-11-2009 11:14:02 5.7 C 6.76 g/m*3 5.7 C 0 km/h
777 20-11-2009 11:26:02 5.9 C 6.85 g/m*3 5.9 C 0 km/h
778 20-11-2009 11:38:02 6.5 C 7.12 g/m*3 6.5 C 0 km/h
779 20-11-2009 11:50:02 7.1 C 7.33 g/m*3 7.1 C 0 km/h
780 20-11-2009 12:02:02 7.7 C 7.7 g/m*3 7.7 C 0 km/h
781 20-11-2009 12:14:02 8.5 C 8.03 g/m*3 8.5 C 0 km/h
782 20-11-2009 12:26:02 9.2 C 8.39 g/m*3 9.2 C 0 km/h
783 20-11-2009 12:38:01 10.1 C 8.79 g/m*3 10.1 C 0 km/h
784 20-11-2009 12:50:02 10.8 C 9.09 g/m*3 10.8 C 0 km/h
785 20-11-2009 13:02:01 11.4 C 9.24 g/m*3 11.4 C 0 km/h
786 20-11-2009 13:14:01 12.1 C 8.9 g/m*3 12.1 C 0 km/h
787 20-11-2009 13:26:02 13.9 C 7.55 g/m*3 13.9 C 0 km/h
788 20-11-2009 13:38:02 15 C 6.67 g/m*3 15 C 0 km/h
789 20-11-2009 13:50:02 15.3 C 6.53 g/m*3 15.3 C 0 km/h
790 20-11-2009 14:02:03 15.5 C 6.34 g/m*3 15.5 C 0 km/h
791 20-11-2009 14:14:03 15.4 C 6.44 g/m*3 15.4 C 0 km/h
792 20-11-2009 14:26:02 15.2 C 6.49 g/m*3 15.2 C 0 km/h
793 20-11-2009 14:38:02 15.2 C 6.62 g/m*3 15.2 C 0 km/h
794 20-11-2009 14:50:01 14.8 C 6.71 g/m*3 14.8 C 0 km/h
795 20-11-2009 15:02:02 14.6 C 6.76 g/m*3 14.6 C 0 km/h
796 20-11-2009 15:14:02 14.6 C 6.76 g/m*3 14.6 C 0 km/h
797 20-11-2009 15:26:01 14.8 C 6.71 g/m*3 14.8 C 0 km/h
798 20-11-2009 15:38:02 14.5 C 6.84 g/m*3 14.5 C 0 km/h
799 20-11-2009 15:50:02 13.9 C 7.07 g/m*3 13.9 C 0 km/h
800 20-11-2009 16:02:02 13.5 C 7.25 g/m*3 13.5 C 0 km/h
Sensor: Nr:Datum:Temp:Abs-Feuchte:Windchill:Wind:
Aussen-T/F 801 20-11-2009 16:14:02 13 C 7.26 g/m*3 13 C 0 km/h
802 20-11-2009 16:26:02 12.6 C 7.41 g/m*3 12.6 C 0 km/h
803 20-11-2009 16:38:02 12.3 C 7.38 g/m*3 12.3 C 0 km/h
804 20-11-2009 16:50:02 12.1 C 7.4 g/m*3 12.1 C 0 km/h
805 20-11-2009 17:02:02 12 C 7.46 g/m*3 12 C 0 km/h
806 20-11-2009 17:14:02 11.7 C 7.43 g/m*3 11.7 C 0 km/h
807 20-11-2009 17:26:02 11.7 C 7.64 g/m*3 11.7 C 0 km/h
808 20-11-2009 17:38:02 11.7 C 7.64 g/m*3 11.7 C 0 km/h
809 20-11-2009 17:50:02 11.7 C 7.64 g/m*3 11.7 C 0 km/h
810 20-11-2009 18:02:02 11.6 C 7.69 g/m*3 11.6 C 0 km/h
811 20-11-2009 18:14:02 11.6 C 7.8 g/m*3 11.6 C 0 km/h
812 20-11-2009 18:26:02 11.5 C 7.75 g/m*3 11.5 C 0 km/h
813 20-11-2009 18:38:02 11.6 C 7.8 g/m*3 11.6 C 0 km/h
814 20-11-2009 18:50:01 11.1 C 7.66 g/m*3 11.1 C 0 km/h
815 20-11-2009 19:02:01 11.2 C 7.8 g/m*3 11.2 C 0 km/h
816 20-11-2009 19:14:01 11.1 C 7.76 g/m*3 11.1 C 0 km/h
817 20-11-2009 19:26:02 11.1 C 7.76 g/m*3 11.1 C 0 km/h
818 20-11-2009 19:38:01 10.9 C 7.66 g/m*3 10.9 C 0 km/h
819 20-11-2009 19:50:01 10.9 C 7.76 g/m*3 10.9 C 0 km/h
820 20-11-2009 20:02:01 10.8 C 7.71 g/m*3 10.8 C 0 km/h
821 20-11-2009 20:14:01 10.5 C 7.57 g/m*3 10.5 C 0 km/h
822 20-11-2009 20:26:02 10.5 C 7.66 g/m*3 10.5 C 0 km/h
823 20-11-2009 20:38:01 10.5 C 7.66 g/m*3 10.5 C 0 km/h
824 20-11-2009 20:50:03 10.5 C 7.76 g/m*3 10.5 C 0 km/h
825 20-11-2009 21:02:02 10.6 C 7.71 g/m*3 10.6 C 0 km/h
Sensor: Nr:Datum:Temp:Abs-Feuchte:Windchill:Wind:
Aussen-T/F 826 20-11-2009 21:14:02 10.6 C 7.81 g/m*3 10.6 C 0 km/h
827 20-11-2009 21:26:02 10.6 C 7.81 g/m*3 10.6 C 0 km/h
828 20-11-2009 21:38:02 10.6 C 7.71 g/m*3 10.6 C 0 km/h
829 20-11-2009 21:50:01 10.4 C 7.61 g/m*3 10.4 C 0 km/h
830 20-11-2009 22:02:02 10.4 C 7.71 g/m*3 10.4 C 0 km/h
831 20-11-2009 22:14:02 10.5 C 7.86 g/m*3 10.5 C 0 km/h
832 20-11-2009 22:26:01 10.4 C 7.81 g/m*3 10.4 C 0 km/h
833 20-11-2009 22:38:01 10.4 C 7.81 g/m*3 10.4 C 0 km/h
834 20-11-2009 22:50:01 10.2 C 7.71 g/m*3 10.2 C 0 km/h
835 20-11-2009 23:02:02 10.2 C 7.71 g/m*3 10.2 C 0 km/h
836 20-11-2009 23:14:02 10.1 C 7.75 g/m*3 10.1 C 0 km/h
837 20-11-2009 23:26:01 10.1 C 7.75 g/m*3 10.1 C 0 km/h
838 20-11-2009 23:38:02 10 C 7.71 g/m*3 10 C 0 km/h
839 20-11-2009 23:51:03 10.1 C 7.75 g/m*3 10.1 C 0 km/h
840 21-11-2009 00:03:03 10 C 7.71 g/m*3 10 C 0 km/h
841 21-11-2009 00:15:03 9.8 C 7.79 g/m*3 9.8 C 0 km/h
842 21-11-2009 00:27:03 10.1 C 7.85 g/m*3 10.1 C 0 km/h
843 21-11-2009 00:39:03 10.2 C 7.8 g/m*3 10.2 C 0 km/h
844 21-11-2009 00:51:03 10.1 C 7.75 g/m*3 10.1 C 0 km/h
845 21-11-2009 01:03:03 10.2 C 7.8 g/m*3 10.2 C 0 km/h
846 21-11-2009 01:15:03 10.4 C 7.9 g/m*3 10.4 C 0 km/h
847 21-11-2009 01:27:03 10.2 C 7.71 g/m*3 10.2 C 0 km/h
848 21-11-2009 01:39:03 10.1 C 7.75 g/m*3 10.1 C 0 km/h
849 21-11-2009 01:51:03 10.2 C 7.8 g/m*3 10.2 C 0 km/h
850 21-11-2009 02:03:03 10 C 7.8 g/m*3 10 C 0 km/h
Sensor: Nr:Datum:Temp:Abs-Feuchte:Windchill:Wind:
Aussen-T/F 851 21-11-2009 02:15:04 10 C 7.8 g/m*3 10 C 0 km/h
852 21-11-2009 02:27:04 10.1 C 7.85 g/m*3 10.1 C 0 km/h
853 21-11-2009 02:39:04 10 C 7.8 g/m*3 10 C 0 km/h
854 21-11-2009 02:51:04 10.1 C 7.85 g/m*3 10.1 C 0 km/h
855 21-11-2009 03:03:04 10.2 C 7.9 g/m*3 10.2 C 0 km/h
856 21-11-2009 03:15:04 10.2 C 7.9 g/m*3 10.2 C 0 km/h
857 21-11-2009 03:27:04 10.1 C 7.75 g/m*3 10.1 C 0 km/h
858 21-11-2009 03:39:04 10 C 7.71 g/m*3 10 C 0 km/h
859 21-11-2009 03:51:04 10 C 7.8 g/m*3 10 C 0 km/h
860 21-11-2009 04:03:04 10.1 C 7.85 g/m*3 10.1 C 0 km/h
861 21-11-2009 04:15:04 10.1 C 7.85 g/m*3 10.1 C 0 km/h
862 21-11-2009 04:27:04 10.1 C 7.85 g/m*3 10.1 C 0 km/h
863 21-11-2009 04:39:04 9.9 C 7.84 g/m*3 9.9 C 0 km/h
864 21-11-2009 04:51:04 9.8 C 7.79 g/m*3 9.8 C 0 km/h
865 21-11-2009 05:03:04 9.7 C 7.74 g/m*3 9.7 C 0 km/h
866 21-11-2009 05:15:04 9.6 C 7.69 g/m*3 9.6 C 0 km/h
867 21-11-2009 05:27:04 9.5 C 7.74 g/m*3 9.5 C 0 km/h
868 21-11-2009 05:39:04 9.3 C 7.64 g/m*3 9.3 C 0 km/h
869 21-11-2009 05:51:04 9.3 C 7.64 g/m*3 9.3 C 0 km/h
870 21-11-2009 06:03:05 9.4 C 7.78 g/m*3 9.4 C 0 km/h
871 21-11-2009 06:15:05 9.4 C 7.78 g/m*3 9.4 C 0 km/h
872 21-11-2009 06:27:05 9.3 C 7.73 g/m*3 9.3 C 0 km/h
873 21-11-2009 06:39:05 9.3 C 7.73 g/m*3 9.3 C 0 km/h
874 21-11-2009 06:51:05 9.3 C 7.73 g/m*3 9.3 C 0 km/h
875 21-11-2009 07:03:05 9.3 C 7.82 g/m*3 9.3 C 0 km/h
Sensor: Nr:Datum:Temp:Abs-Feuchte:Windchill:Wind:
Aussen-T/F 876 21-11-2009 07:15:05 9.5 C 7.92 g/m*3 9.5 C 0 km/h
877 21-11-2009 07:27:05 9.5 C 8.01 g/m*3 9.5 C 0 km/h
878 21-11-2009 07:39:03 9.3 C 7.91 g/m*3 9.3 C 0 km/h
879 21-11-2009 07:51:02 9.3 C 8 g/m*3 9.3 C 0 km/h
880 21-11-2009 08:03:02 9.4 C 8.05 g/m*3 9.4 C 0 km/h
881 21-11-2009 08:15:02 9.3 C 8 g/m*3 9.3 C 0 km/h
882 21-11-2009 08:27:02 9.4 C 8.14 g/m*3 9.4 C 0 km/h
883 21-11-2009 08:39:02 9.5 C 8.19 g/m*3 9.5 C 0 km/h
884 21-11-2009 08:51:02 9.5 C 8.19 g/m*3 9.5 C 0 km/h
885 21-11-2009 09:03:02 9.6 C 8.24 g/m*3 9.6 C 0 km/h
886 21-11-2009 09:15:02 9.7 C 8.3 g/m*3 9.7 C 0 km/h
887 21-11-2009 09:27:02 9.8 C 8.35 g/m*3 9.8 C 0 km/h
888 21-11-2009 09:39:02 10 C 8.36 g/m*3 10 C 0 km/h
889 21-11-2009 09:51:02 10 C 8.27 g/m*3 10 C 0 km/h
890 21-11-2009 10:03:02 10.1 C 8.32 g/m*3 10.1 C 0 km/h
891 21-11-2009 10:15:02 10.3 C 8.43 g/m*3 10.3 C 0 km/h
892 21-11-2009 10:27:02 10.4 C 8.48 g/m*3 10.4 C 0 km/h
893 21-11-2009 10:39:02 10.5 C 8.53 g/m*3 10.5 C 0 km/h
894 21-11-2009 10:51:01 10.7 C 8.64 g/m*3 10.7 C 0 km/h
895 21-11-2009 11:03:01 11.2 C 8.92 g/m*3 11.2 C 0 km/h
896 21-11-2009 11:15:01 11.7 C 8.99 g/m*3 11.7 C 0 km/h
897 21-11-2009 11:27:01 12.2 C 9.17 g/m*3 12.2 C 0 km/h
898 21-11-2009 11:39:01 12.7 C 9.02 g/m*3 12.7 C 0 km/h
899 21-11-2009 11:51:01 13 C 8.85 g/m*3 13 C 0 km/h
900 21-11-2009 12:03:01 13.2 C 8.5 g/m*3 13.2 C 0 km/h
Sensor: Nr:Datum:Temp:Abs-Feuchte:Windchill:Wind:
Aussen-T/F 901 21-11-2009 12:15:02 13.8 C 8.46 g/m*3 13.8 C 0 km/h
902 21-11-2009 12:27:02 14 C 8.32 g/m*3 14 C 0 km/h
903 21-11-2009 12:39:01 14.2 C 8.43 g/m*3 14.2 C 0 km/h
904 21-11-2009 12:51:01 14.2 C 8.3 g/m*3 14.2 C 0 km/h
905 21-11-2009 13:03:01 14.3 C 8.48 g/m*3 14.3 C 0 km/h
906 21-11-2009 13:15:02 14.3 C 8.35 g/m*3 14.3 C 0 km/h
907 21-11-2009 13:27:02 14.4 C 8.53 g/m*3 14.4 C 0 km/h
908 21-11-2009 13:39:01 14.6 C 8.76 g/m*3 14.6 C 0 km/h
909 21-11-2009 13:51:03 14.5 C 8.71 g/m*3 14.5 C 0 km/h
910 21-11-2009 14:03:02 14.5 C 8.46 g/m*3 14.5 C 0 km/h
911 21-11-2009 14:15:02 14.9 C 7.9 g/m*3 14.9 C 0 km/h
912 21-11-2009 14:27:02 15.6 C 7.58 g/m*3 15.6 C 0 km/h
913 21-11-2009 14:39:02 15.6 C 7.05 g/m*3 15.6 C 0 km/h
914 21-11-2009 14:51:02 15.4 C 7.49 g/m*3 15.4 C 0 km/h
915 21-11-2009 15:03:02 15.3 C 7.84 g/m*3 15.3 C 0 km/h
916 21-11-2009 15:15:02 15.1 C 7.74 g/m*3 15.1 C 0 km/h
917 21-11-2009 15:27:03 15.1 C 7.61 g/m*3 15.1 C 0 km/h
918 21-11-2009 15:39:02 14.9 C 7.77 g/m*3 14.9 C 0 km/h
919 21-11-2009 15:51:02 14.6 C 7.76 g/m*3 14.6 C 0 km/h
920 21-11-2009 16:03:01 14.4 C 7.66 g/m*3 14.4 C 0 km/h
921 21-11-2009 16:15:02 14.3 C 7.49 g/m*3 14.3 C 0 km/h
922 21-11-2009 16:27:02 14.3 C 7.25 g/m*3 14.3 C 0 km/h
923 21-11-2009 16:39:02 14.1 C 7.16 g/m*3 14.1 C 0 km/h
924 21-11-2009 16:51:02 14 C 7.24 g/m*3 14 C 0 km/h
925 21-11-2009 17:03:02 14 C 7.12 g/m*3 14 C 0 km/h
Sensor: Nr:Datum:Temp:Abs-Feuchte:Windchill:Wind:
Aussen-T/F 926 21-11-2009 17:15:02 13.7 C 7.22 g/m*3 13.7 C 0 km/h
927 21-11-2009 17:27:02 13.3 C 7.16 g/m*3 13.3 C 0 km/h
928 21-11-2009 17:39:03 13.1 C 7.19 g/m*3 13.1 C 0 km/h
929 21-11-2009 17:51:02 13 C 7.14 g/m*3 13 C 0 km/h
930 21-11-2009 18:03:02 12.9 C 7.21 g/m*3 12.9 C 0 km/h
931 21-11-2009 18:15:02 12.6 C 7.19 g/m*3 12.6 C 0 km/h
932 21-11-2009 18:27:02 12.5 C 7.15 g/m*3 12.5 C 0 km/h
933 21-11-2009 18:39:02 12.4 C 7.21 g/m*3 12.4 C 0 km/h
934 21-11-2009 18:51:02 12.4 C 7.21 g/m*3 12.4 C 0 km/h
935 21-11-2009 19:03:02 12.6 C 7.3 g/m*3 12.6 C 0 km/h
936 21-11-2009 19:15:02 12.5 C 7.26 g/m*3 12.5 C 0 km/h
937 21-11-2009 19:27:02 12.4 C 7.21 g/m*3 12.4 C 0 km/h
938 21-11-2009 19:39:02 12.3 C 7.28 g/m*3 12.3 C 0 km/h
939 21-11-2009 19:51:01 12.1 C 7.29 g/m*3 12.1 C 0 km/h
940 21-11-2009 20:03:02 12.1 C 7.18 g/m*3 12.1 C 0 km/h
941 21-11-2009 20:15:01 12.2 C 7.12 g/m*3 12.2 C 0 km/h
942 21-11-2009 20:27:01 12.2 C 7.12 g/m*3 12.2 C 0 km/h
943 21-11-2009 20:39:02 12.2 C 7.01 g/m*3 12.2 C 0 km/h
944 21-11-2009 20:51:02 12.2 C 7.01 g/m*3 12.2 C 0 km/h
945 21-11-2009 21:03:02 12.1 C 6.97 g/m*3 12.1 C 0 km/h
946 21-11-2009 21:15:02 12.2 C 6.91 g/m*3 12.2 C 0 km/h
947 21-11-2009 21:27:02 12.2 C 6.91 g/m*3 12.2 C 0 km/h
948 21-11-2009 21:39:01 12.1 C 6.86 g/m*3 12.1 C 0 km/h
949 21-11-2009 21:51:01 12.1 C 6.97 g/m*3 12.1 C 0 km/h
950 21-11-2009 22:03:02 12.5 C 6.82 g/m*3 12.5 C 0 km/h
Sensor: Nr:Datum:Temp:Abs-Feuchte:Windchill:Wind:
Aussen-T/F 951 21-11-2009 22:16:03 12.7 C 6.68 g/m*3 12.7 C 0 km/h
952 21-11-2009 22:28:03 12.4 C 6.77 g/m*3 12.4 C 0 km/h
953 21-11-2009 22:40:03 12.2 C 6.91 g/m*3 12.2 C 0 km/h
954 21-11-2009 22:52:03 12 C 6.93 g/m*3 12 C 0 km/h
955 21-11-2009 23:04:03 11.9 C 7.1 g/m*3 11.9 C 0 km/h
956 21-11-2009 23:16:03 11.9 C 7.1 g/m*3 11.9 C 0 km/h
957 21-11-2009 23:28:03 12 C 6.93 g/m*3 12 C 0 km/h
958 21-11-2009 23:40:03 12.1 C 6.86 g/m*3 12.1 C 0 km/h
959 21-11-2009 23:52:03 12.1 C 7.08 g/m*3 12.1 C 0 km/h
960 22-11-2009 00:04:03 11.8 C 7.16 g/m*3 11.8 C 0 km/h
961 22-11-2009 00:16:03 11.7 C 7.22 g/m*3 11.7 C 0 km/h
962 22-11-2009 00:28:03 11.7 C 7.32 g/m*3 11.7 C 0 km/h
963 22-11-2009 00:40:03 11.6 C 7.28 g/m*3 11.6 C 0 km/h
964 22-11-2009 00:52:03 11.3 C 7.24 g/m*3 11.3 C 0 km/h
965 22-11-2009 01:04:03 11.3 C 7.45 g/m*3 11.3 C 0 km/h
966 22-11-2009 01:16:03 11.1 C 7.45 g/m*3 11.1 C 0 km/h
967 22-11-2009 01:28:03 11 C 7.51 g/m*3 11 C 0 km/h
968 22-11-2009 01:40:03 10.9 C 7.66 g/m*3 10.9 C 0 km/h
969 22-11-2009 01:52:03 10.8 C 7.61 g/m*3 10.8 C 0 km/h
970 22-11-2009 02:04:03 10.7 C 7.66 g/m*3 10.7 C 0 km/h
971 22-11-2009 02:16:04 10.6 C 7.61 g/m*3 10.6 C 0 km/h
972 22-11-2009 02:28:04 10.6 C 7.52 g/m*3 10.6 C 0 km/h
973 22-11-2009 02:40:04 10.7 C 7.46 g/m*3 10.7 C 0 km/h
974 22-11-2009 02:52:04 11.4 C 6.98 g/m*3 11.4 C 0 km/h
975 22-11-2009 03:04:04 11.8 C 6.74 g/m*3 11.8 C 0 km/h
Sensor: Nr:Datum:Temp:Abs-Feuchte:Windchill:Wind:
Aussen-T/F 976 22-11-2009 03:16:04 11.8 C 6.63 g/m*3 11.8 C 0 km/h
977 22-11-2009 03:28:04 11.3 C 6.83 g/m*3 11.3 C 0 km/h
978 22-11-2009 03:40:04 11 C 6.91 g/m*3 11 C 0 km/h
979 22-11-2009 03:52:04 10.9 C 6.96 g/m*3 10.9 C 0 km/h
980 22-11-2009 04:04:04 10.8 C 7.02 g/m*3 10.8 C 0 km/h
981 22-11-2009 04:16:04 10.6 C 7.03 g/m*3 10.6 C 0 km/h
982 22-11-2009 04:28:04 10.4 C 7.04 g/m*3 10.4 C 0 km/h
983 22-11-2009 04:40:04 10.4 C 7.13 g/m*3 10.4 C 0 km/h
984 22-11-2009 04:52:04 10.3 C 7.09 g/m*3 10.3 C 0 km/h
985 22-11-2009 05:04:04 10.3 C 7.09 g/m*3 10.3 C 0 km/h
986 22-11-2009 05:16:04 10.2 C 7.04 g/m*3 10.2 C 0 km/h
987 22-11-2009 05:28:04 10.2 C 7.04 g/m*3 10.2 C 0 km/h
988 22-11-2009 05:40:04 10.1 C 7.09 g/m*3 10.1 C 0 km/h
989 22-11-2009 05:52:04 10.1 C 7.09 g/m*3 10.1 C 0 km/h
990 22-11-2009 06:04:04 10.1 C 7.19 g/m*3 10.1 C 0 km/h
991 22-11-2009 06:16:05 10 C 7.24 g/m*3 10 C 0 km/h
992 22-11-2009 06:28:05 10 C 7.24 g/m*3 10 C 0 km/h
993 22-11-2009 06:40:05 9.9 C 7.38 g/m*3 9.9 C 0 km/h
994 22-11-2009 06:52:05 9.9 C 7.38 g/m*3 9.9 C 0 km/h
995 22-11-2009 07:04:05 9.9 C 7.28 g/m*3 9.9 C 0 km/h
996 22-11-2009 07:16:05 9.9 C 7.28 g/m*3 9.9 C 0 km/h
997 22-11-2009 07:28:05 9.7 C 7.28 g/m*3 9.7 C 0 km/h
998 22-11-2009 07:40:05 9.8 C 7.33 g/m*3 9.8 C 0 km/h
999 22-11-2009 07:52:05 9.8 C 7.33 g/m*3 9.8 C 0 km/h
1000 22-11-2009 08:04:02 10.2 C 7.52 g/m*3 10.2 C 0 km/h
Sensor: Nr:Datum:Temp:Abs-Feuchte:Windchill:Wind:
Aussen-T/F 1001 22-11-2009 08:16:03 11 C 7.41 g/m*3 11 C 0 km/h
1002 22-11-2009 08:28:03 11.5 C 7.44 g/m*3 11.5 C 0 km/h
1003 22-11-2009 08:40:02 12.3 C 7.38 g/m*3 12.3 C 0 km/h
1004 22-11-2009 08:52:02 13.5 C 7.37 g/m*3 13.5 C 0 km/h
1005 22-11-2009 09:04:02 14.1 C 7.16 g/m*3 14.1 C 0 km/h
1006 22-11-2009 09:16:03 14 C 7.24 g/m*3 14 C 0 km/h
1007 22-11-2009 09:28:03 13.9 C 7.31 g/m*3 13.9 C 0 km/h
1008 22-11-2009 09:40:02 13.9 C 7.43 g/m*3 13.9 C 0 km/h
1009 22-11-2009 09:52:03 13.7 C 7.22 g/m*3 13.7 C 0 km/h
1010 22-11-2009 10:04:02 13.6 C 7.18 g/m*3 13.6 C 0 km/h
1011 22-11-2009 10:16:02 13.7 C 6.87 g/m*3 13.7 C 0 km/h
1012 22-11-2009 10:28:02 14 C 6.51 g/m*3 14 C 0 km/h
1013 22-11-2009 10:40:02 14.1 C 6.19 g/m*3 14.1 C 0 km/h
1014 22-11-2009 10:52:01 14.1 C 6.07 g/m*3 14.1 C 0 km/h
1015 22-11-2009 11:04:02 14 C 6.03 g/m*3 14 C 0 km/h
1016 22-11-2009 11:16:01 13.9 C 6.11 g/m*3 13.9 C 0 km/h
1017 22-11-2009 11:28:01 13.9 C 5.99 g/m*3 13.9 C 0 km/h
1018 22-11-2009 11:40:01 14 C 5.91 g/m*3 14 C 0 km/h
1019 22-11-2009 11:52:01 13.6 C 6 g/m*3 13.6 C 0 km/h
1020 22-11-2009 12:04:02 13.6 C 6 g/m*3 13.6 C 0 km/h
1021 22-11-2009 12:16:01 13.7 C 6.04 g/m*3 13.7 C 0 km/h
1022 22-11-2009 12:28:01 13.8 C 6.08 g/m*3 13.8 C 0 km/h
1023 22-11-2009 12:40:02 13.7 C 6.04 g/m*3 13.7 C 0 km/h
1024 22-11-2009 12:52:01 13.8 C 6.2 g/m*3 13.8 C 0 km/h
1025 22-11-2009 13:04:02 13.7 C 6.04 g/m*3 13.7 C 0 km/h
Sensor: Nr:Datum:Temp:Abs-Feuchte:Windchill:Wind:
Aussen-T/F 1026 22-11-2009 13:16:02 13.8 C 6.08 g/m*3 13.8 C 0 km/h
1027 22-11-2009 13:28:02 13.8 C 5.96 g/m*3 13.8 C 0 km/h
1028 22-11-2009 13:40:01 13.8 C 5.96 g/m*3 13.8 C 0 km/h
1029 22-11-2009 13:52:01 14 C 5.79 g/m*3 14 C 0 km/h
1030 22-11-2009 14:04:02 13.9 C 5.75 g/m*3 13.9 C 0 km/h
1031 22-11-2009 14:16:02 14 C 5.67 g/m*3 14 C 0 km/h
1032 22-11-2009 14:28:02 14 C 5.67 g/m*3 14 C 0 km/h
1033 22-11-2009 14:40:01 14.1 C 5.58 g/m*3 14.1 C 0 km/h
1034 22-11-2009 14:52:01 14 C 5.55 g/m*3 14 C 0 km/h
1035 22-11-2009 15:04:01 13.6 C 5.41 g/m*3 13.6 C 0 km/h
1036 22-11-2009 15:16:02 13.3 C 5.55 g/m*3 13.3 C 0 km/h
1037 22-11-2009 15:28:02 13.3 C 5.55 g/m*3 13.3 C 0 km/h
1038 22-11-2009 15:40:01 13.2 C 5.4 g/m*3 13.2 C 0 km/h
1039 22-11-2009 15:52:02 13 C 5.44 g/m*3 13 C 0 km/h
1040 22-11-2009 16:04:01 12.9 C 5.52 g/m*3 12.9 C 0 km/h
1041 22-11-2009 16:16:02 13 C 5.56 g/m*3 13 C 0 km/h
1042 22-11-2009 16:28:02 12.9 C 5.64 g/m*3 12.9 C 0 km/h
1043 22-11-2009 16:40:01 12.5 C 5.61 g/m*3 12.5 C 0 km/h
1044 22-11-2009 16:52:02 12 C 5.54 g/m*3 12 C 0 km/h
1045 22-11-2009 17:04:02 11.7 C 5.65 g/m*3 11.7 C 0 km/h
1046 22-11-2009 17:16:02 11.6 C 5.72 g/m*3 11.6 C 0 km/h
1047 22-11-2009 17:28:02 11.5 C 5.68 g/m*3 11.5 C 0 km/h
1048 22-11-2009 17:40:02 11.5 C 5.68 g/m*3 11.5 C 0 km/h
1049 22-11-2009 17:52:02 11.6 C 5.72 g/m*3 11.6 C 0 km/h
1050 22-11-2009 18:04:02 11.5 C 5.68 g/m*3 11.5 C 0 km/h
Sensor: Nr:Datum:Temp:Abs-Feuchte:Windchill:Wind:
Aussen-T/F 1051 22-11-2009 18:16:02 11.5 C 5.58 g/m*3 11.5 C 0 km/h
1052 22-11-2009 18:28:02 11.8 C 5.58 g/m*3 11.8 C 0 km/h
1053 22-11-2009 18:40:02 11.8 C 5.58 g/m*3 11.8 C 0 km/h
1054 22-11-2009 18:52:01 11.8 C 5.47 g/m*3 11.8 C 0 km/h
1055 22-11-2009 19:04:02 11.8 C 5.37 g/m*3 11.8 C 0 km/h
1056 22-11-2009 19:16:02 12 C 5.44 g/m*3 12 C 0 km/h
1057 22-11-2009 19:28:02 11.8 C 5.47 g/m*3 11.8 C 0 km/h
1058 22-11-2009 19:40:02 12.2 C 5.5 g/m*3 12.2 C 0 km/h
1059 22-11-2009 19:52:02 12.7 C 5.57 g/m*3 12.7 C 0 km/h
1060 22-11-2009 20:04:02 12.4 C 6.12 g/m*3 12.4 C 0 km/h
1061 22-11-2009 20:16:02 10.8 C 6.92 g/m*3 10.8 C 0 km/h
1062 22-11-2009 20:28:02 10.5 C 6.89 g/m*3 10.5 C 0 km/h
1063 22-11-2009 20:40:01 10.7 C 6.68 g/m*3 10.7 C 0 km/h
1064 22-11-2009 20:52:02 10.7 C 6.58 g/m*3 10.7 C 0 km/h
1065 22-11-2009 21:04:02 10.7 C 6.38 g/m*3 10.7 C 0 km/h
1066 22-11-2009 21:16:02 10.8 C 6.13 g/m*3 10.8 C 0 km/h
1067 22-11-2009 21:28:02 11 C 5.71 g/m*3 11 C 0 km/h
1068 22-11-2009 21:40:01 10.7 C 5.7 g/m*3 10.7 C 0 km/h
1069 22-11-2009 21:52:02 10.9 C 5.77 g/m*3 10.9 C 0 km/h
1070 22-11-2009 22:04:01 10.8 C 5.54 g/m*3 10.8 C 0 km/h
1071 22-11-2009 22:17:02 10.8 C 5.44 g/m*3 10.8 C 0 km/h
1072 22-11-2009 22:29:02 10.6 C 5.27 g/m*3 10.6 C 0 km/h
1073 22-11-2009 22:41:02 10.7 C 5.3 g/m*3 10.7 C 0 km/h
1074 22-11-2009 22:53:02 9.9 C 5.98 g/m*3 9.9 C 0 km/h
1075 22-11-2009 23:05:02 9.8 C 6.03 g/m*3 9.8 C 0 km/h
Sensor: Nr:Datum:Temp:Abs-Feuchte:Windchill:Wind:
Aussen-T/F 1076 22-11-2009 23:17:02 10.3 C 5.75 g/m*3 10.3 C 0 km/h
1077 22-11-2009 23:29:02 10.7 C 5.5 g/m*3 10.7 C 0 km/h
1078 22-11-2009 23:41:02 10.4 C 5.49 g/m*3 10.4 C 0 km/h
1079 22-11-2009 23:53:02 10.2 C 5.52 g/m*3 10.2 C 0 km/h
1080 23-11-2009 00:05:02 10.1 C 5.39 g/m*3 10.1 C 0 km/h
1081 23-11-2009 00:17:02 10.3 C 5.36 g/m*3 10.3 C 0 km/h
1082 23-11-2009 00:29:02 10.4 C 5.4 g/m*3 10.4 C 0 km/h
1083 23-11-2009 00:41:02 10.3 C 5.36 g/m*3 10.3 C 0 km/h
1084 23-11-2009 00:53:02 10.5 C 5.53 g/m*3 10.5 C 0 km/h
1085 23-11-2009 01:05:03 8.9 C 6.48 g/m*3 8.9 C 0 km/h
1086 23-11-2009 01:17:03 8.3 C 6.66 g/m*3 8.3 C 0 km/h
1087 23-11-2009 01:29:03 8.4 C 6.62 g/m*3 8.4 C 0 km/h
1088 23-11-2009 01:41:03 9.1 C 6.39 g/m*3 9.1 C 0 km/h
1089 23-11-2009 01:53:03 9.1 C 6.21 g/m*3 9.1 C 0 km/h
1090 23-11-2009 02:05:03 9 C 6.17 g/m*3 9 C 0 km/h
1091 23-11-2009 02:17:03 9.1 C 6.21 g/m*3 9.1 C 0 km/h
1092 23-11-2009 02:29:03 8.5 C 6.4 g/m*3 8.5 C 0 km/h
1093 23-11-2009 02:41:03 8.2 C 6.28 g/m*3 8.2 C 0 km/h
1094 23-11-2009 02:53:03 8.3 C 6.15 g/m*3 8.3 C 0 km/h
1095 23-11-2009 03:05:03 8.5 C 6.06 g/m*3 8.5 C 0 km/h
1096 23-11-2009 03:17:03 8.6 C 6.1 g/m*3 8.6 C 0 km/h
1097 23-11-2009 03:29:03 8.5 C 6.06 g/m*3 8.5 C 0 km/h
1098 23-11-2009 03:41:03 8.5 C 6.15 g/m*3 8.5 C 0 km/h
1099 23-11-2009 03:53:03 8.5 C 5.98 g/m*3 8.5 C 0 km/h
1100 23-11-2009 04:05:03 8.6 C 5.76 g/m*3 8.6 C 0 km/h
Sensor: Nr:Datum:Temp:Abs-Feuchte:Windchill:Wind:
Aussen-T/F 1101 23-11-2009 04:17:03 8.7 C 5.79 g/m*3 8.7 C 0 km/h
1102 23-11-2009 04:29:03 8.7 C 5.88 g/m*3 8.7 C 0 km/h
1103 23-11-2009 04:41:03 8.6 C 5.93 g/m*3 8.6 C 0 km/h
1104 23-11-2009 04:53:03 8.9 C 5.87 g/m*3 8.9 C 0 km/h
1105 23-11-2009 05:05:04 8.9 C 5.87 g/m*3 8.9 C 0 km/h
1106 23-11-2009 05:17:04 8.6 C 5.93 g/m*3 8.6 C 0 km/h
1107 23-11-2009 05:29:04 8.8 C 5.92 g/m*3 8.8 C 0 km/h
1108 23-11-2009 05:41:04 8.8 C 5.92 g/m*3 8.8 C 0 km/h
1109 23-11-2009 05:53:04 8.7 C 6.05 g/m*3 8.7 C 0 km/h
1110 23-11-2009 06:05:04 8.9 C 6.04 g/m*3 8.9 C 0 km/h
1111 23-11-2009 06:17:04 8.9 C 5.96 g/m*3 8.9 C 0 km/h
1112 23-11-2009 06:29:04 9.1 C 5.86 g/m*3 9.1 C 0 km/h
1113 23-11-2009 06:41:04 9.1 C 5.86 g/m*3 9.1 C 0 km/h
1114 23-11-2009 06:53:04 9.2 C 5.8 g/m*3 9.2 C 0 km/h
1115 23-11-2009 07:05:02 9 C 5.99 g/m*3 9 C 0 km/h
1116 23-11-2009 07:17:01 8.8 C 6.18 g/m*3 8.8 C 0 km/h
1117 23-11-2009 07:29:01 8.8 C 6.18 g/m*3 8.8 C 0 km/h
1118 23-11-2009 07:41:01 8.9 C 6.22 g/m*3 8.9 C 0 km/h
1119 23-11-2009 07:53:01 9.2 C 6.16 g/m*3 9.2 C 0 km/h
1120 23-11-2009 08:05:02 9.1 C 6.21 g/m*3 9.1 C 0 km/h
1121 23-11-2009 08:17:01 9.3 C 6.11 g/m*3 9.3 C 0 km/h
1122 23-11-2009 08:29:01 9.5 C 6.01 g/m*3 9.5 C 0 km/h
1123 23-11-2009 08:41:01 9.6 C 5.95 g/m*3 9.6 C 0 km/h
1124 23-11-2009 08:53:01 9.9 C 5.98 g/m*3 9.9 C 0 km/h
1125 23-11-2009 09:05:02 9.7 C 6.08 g/m*3 9.7 C 0 km/h
Sensor: Nr:Datum:Temp:Abs-Feuchte:Windchill:Wind:
Aussen-T/F 1126 23-11-2009 09:17:02 9.8 C 6.22 g/m*3 9.8 C 0 km/h
1127 23-11-2009 09:29:02 9.8 C 6.31 g/m*3 9.8 C 0 km/h
1128 23-11-2009 09:41:01 10.1 C 6.15 g/m*3 10.1 C 0 km/h
1129 23-11-2009 09:53:01 10.3 C 6.13 g/m*3 10.3 C 0 km/h
1130 23-11-2009 10:05:02 10.5 C 6.11 g/m*3 10.5 C 0 km/h
1131 23-11-2009 10:17:01 10.5 C 6.11 g/m*3 10.5 C 0 km/h
1132 23-11-2009 10:29:01 10.5 C 6.01 g/m*3 10.5 C 0 km/h
1133 23-11-2009 10:41:02 10.4 C 6.26 g/m*3 10.4 C 0 km/h
1134 23-11-2009 10:53:02 10.1 C 6.43 g/m*3 10.1 C 0 km/h
1135 23-11-2009 11:05:02 10.5 C 6.5 g/m*3 10.5 C 0 km/h
1136 23-11-2009 11:17:01 10.7 C 6.48 g/m*3 10.7 C 0 km/h
1137 23-11-2009 11:29:01 10.9 C 6.47 g/m*3 10.9 C 0 km/h
1138 23-11-2009 11:41:02 11 C 6.51 g/m*3 11 C 0 km/h
1139 23-11-2009 11:53:02 11 C 6.51 g/m*3 11 C 0 km/h
1140 23-11-2009 12:05:02 11.1 C 6.65 g/m*3 11.1 C 0 km/h
1141 23-11-2009 12:17:01 11.3 C 6.73 g/m*3 11.3 C 0 km/h
1142 23-11-2009 12:29:01 11.2 C 6.69 g/m*3 11.2 C 0 km/h
1143 23-11-2009 12:41:02 11.3 C 6.73 g/m*3 11.3 C 0 km/h
1144 23-11-2009 12:53:02 11.2 C 6.89 g/m*3 11.2 C 0 km/h
1145 23-11-2009 13:05:02 10.8 C 7.12 g/m*3 10.8 C 0 km/h
1146 23-11-2009 13:17:02 10.4 C 7.42 g/m*3 10.4 C 0 km/h
1147 23-11-2009 13:29:02 10.4 C 7.61 g/m*3 10.4 C 0 km/h
1148 23-11-2009 13:41:02 10.6 C 7.52 g/m*3 10.6 C 0 km/h
1149 23-11-2009 13:53:01 10.7 C 7.56 g/m*3 10.7 C 0 km/h
1150 23-11-2009 14:05:02 10.7 C 7.76 g/m*3 10.7 C 0 km/h
Sensor: Nr:Datum:Temp:Abs-Feuchte:Windchill:Wind:
Aussen-T/F 1151 23-11-2009 14:17:02 11 C 7.71 g/m*3 11 C 0 km/h
1152 23-11-2009 14:29:02 11.1 C 7.76 g/m*3 11.1 C 0 km/h
1153 23-11-2009 14:41:02 11.3 C 7.75 g/m*3 11.3 C 0 km/h
1154 23-11-2009 14:53:02 11.5 C 7.85 g/m*3 11.5 C 0 km/h
1155 23-11-2009 15:05:02 11.5 C 7.85 g/m*3 11.5 C 0 km/h
1156 23-11-2009 15:17:02 11.4 C 8.01 g/m*3 11.4 C 0 km/h
1157 23-11-2009 15:29:03 11.5 C 8.06 g/m*3 11.5 C 0 km/h
1158 23-11-2009 15:41:01 11.1 C 7.96 g/m*3 11.1 C 0 km/h
1159 23-11-2009 15:53:02 11.1 C 8.16 g/m*3 11.1 C 0 km/h
1160 23-11-2009 16:05:01 11.2 C 8.11 g/m*3 11.2 C 0 km/h
1161 23-11-2009 16:17:02 11.3 C 8.06 g/m*3 11.3 C 0 km/h
1162 23-11-2009 16:29:02 11.1 C 8.06 g/m*3 11.1 C 0 km/h
1163 23-11-2009 16:41:02 11.2 C 8.11 g/m*3 11.2 C 0 km/h
1164 23-11-2009 16:53:02 11.2 C 8.11 g/m*3 11.2 C 0 km/h
1165 23-11-2009 17:05:02 11.1 C 8.16 g/m*3 11.1 C 0 km/h
1166 23-11-2009 17:17:02 11 C 8.21 g/m*3 11 C 0 km/h
1167 23-11-2009 17:29:02 10.8 C 8.2 g/m*3 10.8 C 0 km/h
1168 23-11-2009 17:41:03 10.9 C 8.26 g/m*3 10.9 C 0 km/h
1169 23-11-2009 17:53:02 11.1 C 8.16 g/m*3 11.1 C 0 km/h
1170 23-11-2009 18:05:02 11.5 C 8.16 g/m*3 11.5 C 0 km/h
1171 23-11-2009 18:17:01 11.6 C 8 g/m*3 11.6 C 0 km/h
1172 23-11-2009 18:29:01 11.7 C 7.84 g/m*3 11.7 C 0 km/h
1173 23-11-2009 18:41:02 11.8 C 7.79 g/m*3 11.8 C 0 km/h
1174 23-11-2009 18:53:02 11.9 C 7.73 g/m*3 11.9 C 0 km/h
1175 23-11-2009 19:05:02 11.7 C 7.84 g/m*3 11.7 C 0 km/h
Sensor: Nr:Datum:Temp:Abs-Feuchte:Windchill:Wind:
Aussen-T/F 1176 23-11-2009 19:17:02 11.7 C 7.84 g/m*3 11.7 C 0 km/h
1177 23-11-2009 19:29:02 11.8 C 7.89 g/m*3 11.8 C 0 km/h
1178 23-11-2009 19:41:02 11.7 C 7.74 g/m*3 11.7 C 0 km/h
1179 23-11-2009 19:53:02 11.7 C 7.84 g/m*3 11.7 C 0 km/h
1180 23-11-2009 20:05:02 11.9 C 7.84 g/m*3 11.9 C 0 km/h
1181 23-11-2009 20:17:02 11.8 C 7.89 g/m*3 11.8 C 0 km/h
1182 23-11-2009 20:29:02 11.9 C 7.94 g/m*3 11.9 C 0 km/h
1183 23-11-2009 20:41:02 11.6 C 8 g/m*3 11.6 C 0 km/h
1184 23-11-2009 20:53:01 11.5 C 8.06 g/m*3 11.5 C 0 km/h
1185 23-11-2009 21:05:02 11.4 C 8.21 g/m*3 11.4 C 0 km/h
1186 23-11-2009 21:17:01 11.4 C 8.31 g/m*3 11.4 C 0 km/h
1187 23-11-2009 21:29:01 11.4 C 8.42 g/m*3 11.4 C 0 km/h
1188 23-11-2009 21:41:02 11.5 C 8.37 g/m*3 11.5 C 0 km/h
1189 23-11-2009 21:53:02 11.5 C 8.26 g/m*3 11.5 C 0 km/h
1190 23-11-2009 22:06:04 11.8 C 8.1 g/m*3 11.8 C 0 km/h
1191 23-11-2009 22:18:04 12 C 7.99 g/m*3 12 C 0 km/h
1192 23-11-2009 22:30:04 12.2 C 7.99 g/m*3 12.2 C 0 km/h
1193 23-11-2009 22:42:04 12.1 C 8.04 g/m*3 12.1 C 0 km/h
1194 23-11-2009 22:54:04 11.8 C 8.1 g/m*3 11.8 C 0 km/h
1195 23-11-2009 23:06:04 11.2 C 8.31 g/m*3 11.2 C 0 km/h
1196 23-11-2009 23:18:04 10.6 C 8.1 g/m*3 10.6 C 0 km/h
1197 23-11-2009 23:30:04 10.3 C 7.95 g/m*3 10.3 C 0 km/h
1198 23-11-2009 23:42:04 10.5 C 7.66 g/m*3 10.5 C 0 km/h
1199 23-11-2009 23:54:04 11 C 7.01 g/m*3 11 C 0 km/h
1200 24-11-2009 00:06:04 11.1 C 6.45 g/m*3 11.1 C 0 km/h
Sensor: Nr:Datum:Temp:Abs-Feuchte:Windchill:Wind:
Aussen-T/F 1201 24-11-2009 00:18:04 10.8 C 6.52 g/m*3 10.8 C 0 km/h
1202 24-11-2009 00:30:04 11 C 6.31 g/m*3 11 C 0 km/h
1203 24-11-2009 00:42:04 11.3 C 6.12 g/m*3 11.3 C 0 km/h
1204 24-11-2009 00:54:04 11.5 C 6.2 g/m*3 11.5 C 0 km/h
1205 24-11-2009 01:06:04 11.2 C 6.28 g/m*3 11.2 C 0 km/h
1206 24-11-2009 01:18:04 11.1 C 6.25 g/m*3 11.1 C 0 km/h
1207 24-11-2009 01:30:05 11 C 6.41 g/m*3 11 C 0 km/h
1208 24-11-2009 01:42:05 11.1 C 6.55 g/m*3 11.1 C 0 km/h
1209 24-11-2009 01:54:05 11.1 C 6.45 g/m*3 11.1 C 0 km/h
1210 24-11-2009 02:06:05 11.2 C 6.28 g/m*3 11.2 C 0 km/h
1211 24-11-2009 02:18:05 11.2 C 6.28 g/m*3 11.2 C 0 km/h
1212 24-11-2009 02:30:05 11 C 6.21 g/m*3 11 C 0 km/h
1213 24-11-2009 02:42:05 11 C 6.11 g/m*3 11 C 0 km/h
1214 24-11-2009 02:54:05 11 C 6.11 g/m*3 11 C 0 km/h
1215 24-11-2009 03:06:05 10.9 C 6.17 g/m*3 10.9 C 0 km/h
1216 24-11-2009 03:18:05 10.8 C 6.23 g/m*3 10.8 C 0 km/h
1217 24-11-2009 03:30:05 10.7 C 6.29 g/m*3 10.7 C 0 km/h
1218 24-11-2009 03:42:05 10.7 C 6.19 g/m*3 10.7 C 0 km/h
1219 24-11-2009 03:54:05 10.7 C 6.19 g/m*3 10.7 C 0 km/h
1220 24-11-2009 04:06:05 10.7 C 6.29 g/m*3 10.7 C 0 km/h
1221 24-11-2009 04:18:05 10.6 C 6.25 g/m*3 10.6 C 0 km/h
1222 24-11-2009 04:30:05 10.5 C 6.3 g/m*3 10.5 C 0 km/h
1223 24-11-2009 04:42:05 10.5 C 6.3 g/m*3 10.5 C 0 km/h
1224 24-11-2009 04:54:05 10.4 C 6.36 g/m*3 10.4 C 0 km/h
1225 24-11-2009 05:06:05 10.5 C 6.4 g/m*3 10.5 C 0 km/h
Sensor: Nr:Datum:Temp:Abs-Feuchte:Windchill:Wind:
Aussen-T/F 1226 24-11-2009 05:18:05 10.5 C 6.4 g/m*3 10.5 C 0 km/h
1227 24-11-2009 05:30:06 10.6 C 6.34 g/m*3 10.6 C 0 km/h
1228 24-11-2009 05:42:06 10.6 C 6.44 g/m*3 10.6 C 0 km/h
1229 24-11-2009 05:54:06 10.4 C 6.46 g/m*3 10.4 C 0 km/h
1230 24-11-2009 06:06:06 10.5 C 6.5 g/m*3 10.5 C 0 km/h
1231 24-11-2009 06:18:06 10.4 C 6.55 g/m*3 10.4 C 0 km/h
1232 24-11-2009 06:30:06 10.4 C 6.55 g/m*3 10.4 C 0 km/h
1233 24-11-2009 06:42:06 10.4 C 6.55 g/m*3 10.4 C 0 km/h
1234 24-11-2009 06:54:02 10.3 C 6.51 g/m*3 10.3 C 0 km/h
1235 24-11-2009 07:06:02 10.5 C 6.5 g/m*3 10.5 C 0 km/h
1236 24-11-2009 07:18:02 10.5 C 6.4 g/m*3 10.5 C 0 km/h
1237 24-11-2009 07:30:02 10.3 C 6.32 g/m*3 10.3 C 0 km/h
1238 24-11-2009 07:42:02 9.9 C 6.35 g/m*3 9.9 C 0 km/h
1239 24-11-2009 07:54:02 9.8 C 6.31 g/m*3 9.8 C 0 km/h
1240 24-11-2009 08:06:01 9.7 C 6.36 g/m*3 9.7 C 0 km/h
1241 24-11-2009 08:18:02 9.5 C 6.28 g/m*3 9.5 C 0 km/h
1242 24-11-2009 08:30:02 9.5 C 6.37 g/m*3 9.5 C 0 km/h
1243 24-11-2009 08:42:02 9.4 C 6.33 g/m*3 9.4 C 0 km/h
1244 24-11-2009 08:54:02 9.4 C 6.42 g/m*3 9.4 C 0 km/h
1245 24-11-2009 09:06:03 9.8 C 6.49 g/m*3 9.8 C 0 km/h
1246 24-11-2009 09:18:02 10 C 6.39 g/m*3 10 C 0 km/h
1247 24-11-2009 09:30:02 10 C 6.48 g/m*3 10 C 0 km/h
1248 24-11-2009 09:42:02 10.1 C 6.62 g/m*3 10.1 C 0 km/h
1249 24-11-2009 09:54:01 10.2 C 6.66 g/m*3 10.2 C 0 km/h
1250 24-11-2009 10:06:01 10.4 C 6.84 g/m*3 10.4 C 0 km/h
Sensor: Nr:Datum:Temp:Abs-Feuchte:Windchill:Wind:
Aussen-T/F 1251 24-11-2009 10:18:01 10.5 C 6.98 g/m*3 10.5 C 0 km/h
1252 24-11-2009 10:30:01 10.3 C 6.99 g/m*3 10.3 C 0 km/h
1253 24-11-2009 10:42:02 10.3 C 7.37 g/m*3 10.3 C 0 km/h
1254 24-11-2009 10:54:02 10.6 C 7.61 g/m*3 10.6 C 0 km/h
1255 24-11-2009 11:06:02 11 C 7.71 g/m*3 11 C 0 km/h
1256 24-11-2009 11:18:02 11.1 C 7.76 g/m*3 11.1 C 0 km/h
1257 24-11-2009 11:30:02 11.4 C 7.9 g/m*3 11.4 C 0 km/h
1258 24-11-2009 11:42:02 11.5 C 8.06 g/m*3 11.5 C 0 km/h
1259 24-11-2009 11:54:01 11.4 C 8.21 g/m*3 11.4 C 0 km/h
1260 24-11-2009 12:06:02 11.5 C 8.37 g/m*3 11.5 C 0 km/h
1261 24-11-2009 12:18:01 11.7 C 8.58 g/m*3 11.7 C 0 km/h
1262 24-11-2009 12:30:01 11.9 C 8.79 g/m*3 11.9 C 0 km/h
1263 24-11-2009 12:42:02 12.2 C 8.96 g/m*3 12.2 C 0 km/h
1264 24-11-2009 12:54:02 12.3 C 9.01 g/m*3 12.3 C 0 km/h
1265 24-11-2009 13:06:02 12.5 C 9.24 g/m*3 12.5 C 0 km/h
1266 24-11-2009 13:18:01 12.8 C 9.3 g/m*3 12.8 C 0 km/h
1267 24-11-2009 13:30:01 13.3 C 9.24 g/m*3 13.3 C 0 km/h
1268 24-11-2009 13:42:02 13.3 C 9.24 g/m*3 13.3 C 0 km/h
1269 24-11-2009 13:54:02 13.7 C 9.35 g/m*3 13.7 C 0 km/h
1270 24-11-2009 14:06:02 13.9 C 9.23 g/m*3 13.9 C 0 km/h
1271 24-11-2009 14:18:01 14.1 C 8.86 g/m*3 14.1 C 0 km/h
1272 24-11-2009 14:30:01 14.2 C 8.43 g/m*3 14.2 C 0 km/h
1273 24-11-2009 14:42:02 14.4 C 8.03 g/m*3 14.4 C 0 km/h
1274 24-11-2009 14:54:02 14.4 C 7.91 g/m*3 14.4 C 0 km/h
1275 24-11-2009 15:06:02 14.2 C 8.06 g/m*3 14.2 C 0 km/h
Sensor: Nr:Datum:Temp:Abs-Feuchte:Windchill:Wind:
Aussen-T/F 1276 24-11-2009 15:18:02 13.9 C 8.39 g/m*3 13.9 C 0 km/h
1277 24-11-2009 15:30:02 13.7 C 8.41 g/m*3 13.7 C 0 km/h
1278 24-11-2009 15:42:02 13.6 C 8.47 g/m*3 13.6 C 0 km/h
1279 24-11-2009 15:54:02 13.5 C 8.54 g/m*3 13.5 C 0 km/h
1280 24-11-2009 16:06:02 13.5 C 8.42 g/m*3 13.5 C 0 km/h
1281 24-11-2009 16:18:02 13.4 C 8.25 g/m*3 13.4 C 0 km/h
1282 24-11-2009 16:30:02 13.3 C 8.2 g/m*3 13.3 C 0 km/h
1283 24-11-2009 16:42:02 13.3 C 8.2 g/m*3 13.3 C 0 km/h
1284 24-11-2009 16:54:01 13.2 C 8.15 g/m*3 13.2 C 0 km/h
1285 24-11-2009 17:06:02 13.4 C 8.25 g/m*3 13.4 C 0 km/h
1286 24-11-2009 17:18:02 13.2 C 8.15 g/m*3 13.2 C 0 km/h
1287 24-11-2009 17:30:02 13.3 C 8.2 g/m*3 13.3 C 0 km/h
1288 24-11-2009 17:42:02 13.2 C 8.15 g/m*3 13.2 C 0 km/h
1289 24-11-2009 17:54:02 13.2 C 8.27 g/m*3 13.2 C 0 km/h
1290 24-11-2009 18:06:02 13.1 C 8.22 g/m*3 13.1 C 0 km/h
1291 24-11-2009 18:18:02 13.1 C 8.33 g/m*3 13.1 C 0 km/h
1292 24-11-2009 18:30:03 13.1 C 8.33 g/m*3 13.1 C 0 km/h
1293 24-11-2009 18:42:01 13 C 8.28 g/m*3 13 C 0 km/h
1294 24-11-2009 18:54:02 13 C 8.28 g/m*3 13 C 0 km/h
1295 24-11-2009 19:06:01 13.1 C 8.22 g/m*3 13.1 C 0 km/h
1296 24-11-2009 19:18:02 13.1 C 8.1 g/m*3 13.1 C 0 km/h
1297 24-11-2009 19:30:02 13 C 8.05 g/m*3 13 C 0 km/h
1298 24-11-2009 19:42:02 13 C 8.05 g/m*3 13 C 0 km/h
1299 24-11-2009 19:54:02 13 C 7.94 g/m*3 13 C 0 km/h
1300 24-11-2009 20:06:02 13 C 7.94 g/m*3 13 C 0 km/h
Sensor: Nr:Datum:Temp:Abs-Feuchte:Windchill:Wind:
Aussen-T/F 1301 24-11-2009 20:18:02 13.1 C 7.87 g/m*3 13.1 C 0 km/h
1302 24-11-2009 20:30:02 13.1 C 7.87 g/m*3 13.1 C 0 km/h
1303 24-11-2009 20:42:02 13.1 C 7.76 g/m*3 13.1 C 0 km/h
1304 24-11-2009 20:54:02 13.2 C 7.81 g/m*3 13.2 C 0 km/h
1305 24-11-2009 21:06:01 13.3 C 7.74 g/m*3 13.3 C 0 km/h
1306 24-11-2009 21:18:02 13.4 C 7.67 g/m*3 13.4 C 0 km/h
1307 24-11-2009 21:30:02 13.3 C 7.63 g/m*3 13.3 C 0 km/h
1308 24-11-2009 21:42:01 13.3 C 7.63 g/m*3 13.3 C 0 km/h
1309 24-11-2009 21:54:02 13.1 C 7.53 g/m*3 13.1 C 0 km/h
1310 24-11-2009 22:06:01 13.3 C 7.51 g/m*3 13.3 C 0 km/h
1311 24-11-2009 22:18:02 13.3 C 7.39 g/m*3 13.3 C 0 km/h
1312 24-11-2009 22:30:02 13.4 C 7.32 g/m*3 13.4 C 0 km/h
1313 24-11-2009 22:42:01 13.3 C 7.28 g/m*3 13.3 C 0 km/h
1314 24-11-2009 22:55:03 13.3 C 7.28 g/m*3 13.3 C 0 km/h
1315 24-11-2009 23:07:03 13.2 C 7.12 g/m*3 13.2 C 0 km/h
1316 24-11-2009 23:19:03 13.2 C 7 g/m*3 13.2 C 0 km/h
1317 24-11-2009 23:31:03 13.2 C 6.89 g/m*3 13.2 C 0 km/h
1318 24-11-2009 23:43:03 13.2 C 6.77 g/m*3 13.2 C 0 km/h
1319 24-11-2009 23:55:03 13.1 C 6.62 g/m*3 13.1 C 0 km/h
1320 25-11-2009 00:07:03 13.2 C 6.54 g/m*3 13.2 C 0 km/h
1321 25-11-2009 00:19:03 13.2 C 6.54 g/m*3 13.2 C 0 km/h
1322 25-11-2009 00:31:03 13.2 C 6.54 g/m*3 13.2 C 0 km/h
1323 25-11-2009 00:43:03 13.2 C 6.54 g/m*3 13.2 C 0 km/h
1324 25-11-2009 00:55:03 13.1 C 6.5 g/m*3 13.1 C 0 km/h
1325 25-11-2009 01:07:03 13.1 C 6.62 g/m*3 13.1 C 0 km/h
Sensor: Nr:Datum:Temp:Abs-Feuchte:Windchill:Wind:
Aussen-T/F 1326 25-11-2009 01:19:03 13.1 C 6.73 g/m*3 13.1 C 0 km/h
1327 25-11-2009 01:31:03 12.9 C 6.88 g/m*3 12.9 C 0 km/h
1328 25-11-2009 01:43:04 13 C 6.8 g/m*3 13 C 0 km/h
1329 25-11-2009 01:55:04 13.1 C 6.85 g/m*3 13.1 C 0 km/h
1330 25-11-2009 02:07:04 13 C 7.03 g/m*3 13 C 0 km/h
1331 25-11-2009 02:19:04 12.9 C 7.1 g/m*3 12.9 C 0 km/h
1332 25-11-2009 02:31:04 12.8 C 7.06 g/m*3 12.8 C 0 km/h
1333 25-11-2009 02:43:04 12.9 C 6.99 g/m*3 12.9 C 0 km/h
1334 25-11-2009 02:55:04 12.9 C 6.76 g/m*3 12.9 C 0 km/h
1335 25-11-2009 03:07:04 12.9 C 6.76 g/m*3 12.9 C 0 km/h
1336 25-11-2009 03:19:04 13 C 6.58 g/m*3 13 C 0 km/h
1337 25-11-2009 03:31:04 13 C 6.46 g/m*3 13 C 0 km/h
1338 25-11-2009 03:43:04 13.1 C 6.5 g/m*3 13.1 C 0 km/h
1339 25-11-2009 03:55:04 13.1 C 6.5 g/m*3 13.1 C 0 km/h
1340 25-11-2009 04:07:04 13 C 6.46 g/m*3 13 C 0 km/h
1341 25-11-2009 04:19:04 12.9 C 6.42 g/m*3 12.9 C 0 km/h
1342 25-11-2009 04:31:04 13 C 6.24 g/m*3 13 C 0 km/h
1343 25-11-2009 04:43:04 12.8 C 6.38 g/m*3 12.8 C 0 km/h
1344 25-11-2009 04:55:04 12.7 C 6.35 g/m*3 12.7 C 0 km/h
1345 25-11-2009 05:07:04 12.7 C 6.35 g/m*3 12.7 C 0 km/h
1346 25-11-2009 05:19:04 12.6 C 6.31 g/m*3 12.6 C 0 km/h
1347 25-11-2009 05:31:04 12.4 C 6.23 g/m*3 12.4 C 0 km/h
1348 25-11-2009 05:43:05 12.2 C 6.26 g/m*3 12.2 C 0 km/h
1349 25-11-2009 05:55:05 12.1 C 6.33 g/m*3 12.1 C 0 km/h
1350 25-11-2009 06:07:05 11.9 C 6.35 g/m*3 11.9 C 0 km/h
Sensor: Nr:Datum:Temp:Abs-Feuchte:Windchill:Wind:
Aussen-T/F 1351 25-11-2009 06:19:05 11.7 C 6.38 g/m*3 11.7 C 0 km/h
1352 25-11-2009 06:31:05 11.5 C 6.3 g/m*3 11.5 C 0 km/h
1353 25-11-2009 06:43:05 11.4 C 6.36 g/m*3 11.4 C 0 km/h
1354 25-11-2009 06:55:05 11.2 C 6.28 g/m*3 11.2 C 0 km/h
1355 25-11-2009 07:07:02 11.2 C 6.28 g/m*3 11.2 C 0 km/h
1356 25-11-2009 07:19:03 11.2 C 6.28 g/m*3 11.2 C 0 km/h
1357 25-11-2009 07:31:02 10.7 C 6.29 g/m*3 10.7 C 0 km/h
1358 25-11-2009 07:43:02 10.1 C 6.24 g/m*3 10.1 C 0 km/h
1359 25-11-2009 07:55:02 10 C 6.3 g/m*3 10 C 0 km/h
1360 25-11-2009 08:07:01 9.8 C 6.31 g/m*3 9.8 C 0 km/h
1361 25-11-2009 08:19:02 9.5 C 6.28 g/m*3 9.5 C 0 km/h
1362 25-11-2009 08:31:01 9.5 C 6.28 g/m*3 9.5 C 0 km/h
1363 25-11-2009 08:43:01 9.4 C 6.33 g/m*3 9.4 C 0 km/h
1364 25-11-2009 08:55:02 9.3 C 6.29 g/m*3 9.3 C 0 km/h
1365 25-11-2009 09:07:02 9.5 C 6.46 g/m*3 9.5 C 0 km/h
1366 25-11-2009 09:19:02 9.4 C 6.33 g/m*3 9.4 C 0 km/h
1367 25-11-2009 09:31:02 9.4 C 6.42 g/m*3 9.4 C 0 km/h
1368 25-11-2009 09:43:02 9.5 C 6.37 g/m*3 9.5 C 0 km/h
1369 25-11-2009 09:55:02 10.2 C 6.28 g/m*3 10.2 C 0 km/h
1370 25-11-2009 10:07:02 10.6 C 6.34 g/m*3 10.6 C 0 km/h
1371 25-11-2009 10:19:02 11.2 C 6.18 g/m*3 11.2 C 0 km/h
1372 25-11-2009 10:31:01 11.5 C 6.2 g/m*3 11.5 C 0 km/h
1373 25-11-2009 10:43:01 11.2 C 6.08 g/m*3 11.2 C 0 km/h
1374 25-11-2009 10:55:02 11.2 C 6.18 g/m*3 11.2 C 0 km/h
1375 25-11-2009 11:07:01 11.5 C 6.2 g/m*3 11.5 C 0 km/h
Sensor: Nr:Datum:Temp:Abs-Feuchte:Windchill:Wind:
Aussen-T/F 1376 25-11-2009 11:19:01 11.8 C 6.31 g/m*3 11.8 C 0 km/h
1377 25-11-2009 11:31:02 12.3 C 6.08 g/m*3 12.3 C 0 km/h
1378 25-11-2009 11:43:02 12.5 C 6.05 g/m*3 12.5 C 0 km/h
1379 25-11-2009 11:55:02 12.6 C 5.97 g/m*3 12.6 C 0 km/h
1380 25-11-2009 12:07:02 13.1 C 5.71 g/m*3 13.1 C 0 km/h
1381 25-11-2009 12:19:02 13.7 C 5.68 g/m*3 13.7 C 0 km/h
1382 25-11-2009 12:31:02 13.9 C 5.51 g/m*3 13.9 C 0 km/h
1383 25-11-2009 12:43:02 14.1 C 5.22 g/m*3 14.1 C 0 km/h
1384 25-11-2009 12:55:02 14.1 C 5.22 g/m*3 14.1 C 0 km/h
1385 25-11-2009 13:07:02 14.4 C 5.07 g/m*3 14.4 C 0 km/h
1386 25-11-2009 13:19:01 15 C 5 g/m*3 15 C 0 km/h
1387 25-11-2009 13:31:02 15 C 5 g/m*3 15 C 0 km/h
1388 25-11-2009 13:43:02 15 C 4.74 g/m*3 15 C 0 km/h
1389 25-11-2009 13:55:02 15.2 C 4.67 g/m*3 15.2 C 0 km/h
1390 25-11-2009 14:07:02 15.2 C 4.67 g/m*3 15.2 C 0 km/h
1391 25-11-2009 14:19:01 15.1 C 4.52 g/m*3 15.1 C 0 km/h
1392 25-11-2009 14:31:02 15.2 C 4.67 g/m*3 15.2 C 0 km/h
1393 25-11-2009 14:43:02 15.2 C 4.67 g/m*3 15.2 C 0 km/h
1394 25-11-2009 14:55:02 15.1 C 4.77 g/m*3 15.1 C 0 km/h
1395 25-11-2009 15:07:02 14.8 C 4.94 g/m*3 14.8 C 0 km/h
1396 25-11-2009 15:19:02 14.7 C 4.78 g/m*3 14.7 C 0 km/h
1397 25-11-2009 15:31:02 14.5 C 4.85 g/m*3 14.5 C 0 km/h
1398 25-11-2009 15:43:02 14.4 C 4.94 g/m*3 14.4 C 0 km/h
1399 25-11-2009 15:55:02 14.3 C 4.91 g/m*3 14.3 C 0 km/h
1400 25-11-2009 16:07:02 14.2 C 4.88 g/m*3 14.2 C 0 km/h
Sensor: Nr:Datum:Temp:Abs-Feuchte:Windchill:Wind:
Aussen-T/F 1401 25-11-2009 16:19:03 14.1 C 4.85 g/m*3 14.1 C 0 km/h
1402 25-11-2009 16:31:02 14 C 4.95 g/m*3 14 C 0 km/h
1403 25-11-2009 16:43:02 14 C 4.95 g/m*3 14 C 0 km/h
1404 25-11-2009 16:55:02 13.8 C 5 g/m*3 13.8 C 0 km/h
1405 25-11-2009 17:07:02 13.6 C 5.18 g/m*3 13.6 C 0 km/h
1406 25-11-2009 17:19:02 13.4 C 5.23 g/m*3 13.4 C 0 km/h
1407 25-11-2009 17:31:02 13.4 C 5.23 g/m*3 13.4 C 0 km/h
1408 25-11-2009 17:43:02 13.4 C 5.35 g/m*3 13.4 C 0 km/h
1409 25-11-2009 17:55:02 13 C 5.78 g/m*3 13 C 0 km/h
1410 25-11-2009 18:07:02 12.8 C 6.05 g/m*3 12.8 C 0 km/h
1411 25-11-2009 18:19:02 12.4 C 6.45 g/m*3 12.4 C 0 km/h
1412 25-11-2009 18:31:02 12 C 6.61 g/m*3 12 C 0 km/h
1413 25-11-2009 18:43:02 11.3 C 7.04 g/m*3 11.3 C 0 km/h
1414 25-11-2009 18:55:02 10.6 C 7.42 g/m*3 10.6 C 0 km/h
1415 25-11-2009 19:07:01 10.3 C 7.57 g/m*3 10.3 C 0 km/h
1416 25-11-2009 19:19:02 10.2 C 7.71 g/m*3 10.2 C 0 km/h
1417 25-11-2009 19:31:01 10.1 C 7.75 g/m*3 10.1 C 0 km/h
1418 25-11-2009 19:43:01 10 C 7.8 g/m*3 10 C 0 km/h
1419 25-11-2009 19:55:02 9.9 C 7.84 g/m*3 9.9 C 0 km/h
1420 25-11-2009 20:07:01 9.9 C 7.84 g/m*3 9.9 C 0 km/h
1421 25-11-2009 20:19:01 10 C 7.71 g/m*3 10 C 0 km/h
1422 25-11-2009 20:31:02 10.4 C 7.61 g/m*3 10.4 C 0 km/h
1423 25-11-2009 20:43:02 10.4 C 7.42 g/m*3 10.4 C 0 km/h
1424 25-11-2009 20:55:02 10.3 C 7.37 g/m*3 10.3 C 0 km/h
1425 25-11-2009 21:07:02 10.2 C 7.33 g/m*3 10.2 C 0 km/h
Sensor: Nr:Datum:Temp:Abs-Feuchte:Windchill:Wind:
Aussen-T/F 1426 25-11-2009 21:19:02 10.1 C 7.38 g/m*3 10.1 C 0 km/h
1427 25-11-2009 21:31:02 10.2 C 7.33 g/m*3 10.2 C 0 km/h
1428 25-11-2009 21:43:03 10.3 C 7.09 g/m*3 10.3 C 0 km/h
1429 25-11-2009 21:55:01 10.3 C 6.99 g/m*3 10.3 C 0 km/h
1430 25-11-2009 22:08:02 10.2 C 6.95 g/m*3 10.2 C 0 km/h
1431 25-11-2009 22:20:02 10.2 C 6.85 g/m*3 10.2 C 0 km/h
1432 25-11-2009 22:32:02 10 C 6.86 g/m*3 10 C 0 km/h
1433 25-11-2009 22:44:02 10 C 6.86 g/m*3 10 C 0 km/h
1434 25-11-2009 22:56:02 10 C 6.77 g/m*3 10 C 0 km/h
1435 25-11-2009 23:08:02 10.1 C 6.81 g/m*3 10.1 C 0 km/h
1436 25-11-2009 23:20:02 10.1 C 6.71 g/m*3 10.1 C 0 km/h
1437 25-11-2009 23:32:02 9.8 C 6.68 g/m*3 9.8 C 0 km/h
1438 25-11-2009 23:44:02 9.8 C 6.59 g/m*3 9.8 C 0 km/h
1439 25-11-2009 23:56:02 9.8 C 6.49 g/m*3 9.8 C 0 km/h
1440 26-11-2009 00:08:02 9.8 C 6.59 g/m*3 9.8 C 0 km/h
1441 26-11-2009 00:20:02 9.8 C 6.49 g/m*3 9.8 C 0 km/h
1442 26-11-2009 00:32:02 9.9 C 6.44 g/m*3 9.9 C 0 km/h
1443 26-11-2009 00:44:02 9.8 C 6.4 g/m*3 9.8 C 0 km/h
1444 26-11-2009 00:56:02 9.6 C 6.41 g/m*3 9.6 C 0 km/h
1445 26-11-2009 01:08:03 9.7 C 6.36 g/m*3 9.7 C 0 km/h
1446 26-11-2009 01:20:03 9.5 C 6.28 g/m*3 9.5 C 0 km/h
1447 26-11-2009 01:32:03 9.5 C 6.19 g/m*3 9.5 C 0 km/h
1448 26-11-2009 01:44:03 9.4 C 6.06 g/m*3 9.4 C 0 km/h
1449 26-11-2009 01:56:03 9.2 C 5.98 g/m*3 9.2 C 0 km/h
1450 26-11-2009 02:08:03 9 C 5.91 g/m*3 9 C 0 km/h
Sensor: Nr:Datum:Temp:Abs-Feuchte:Windchill:Wind:
Aussen-T/F 1451 26-11-2009 02:20:03 9.2 C 5.8 g/m*3 9.2 C 0 km/h
1452 26-11-2009 02:32:03 9.1 C 5.77 g/m*3 9.1 C 0 km/h
1453 26-11-2009 02:44:03 9.1 C 5.77 g/m*3 9.1 C 0 km/h
1454 26-11-2009 02:56:03 9.2 C 5.8 g/m*3 9.2 C 0 km/h
1455 26-11-2009 03:08:03 9.4 C 5.79 g/m*3 9.4 C 0 km/h
1456 26-11-2009 03:20:03 9.5 C 5.83 g/m*3 9.5 C 0 km/h
1457 26-11-2009 03:32:03 9.4 C 5.88 g/m*3 9.4 C 0 km/h
1458 26-11-2009 03:44:03 9.5 C 5.83 g/m*3 9.5 C 0 km/h
1459 26-11-2009 03:56:03 9.4 C 5.79 g/m*3 9.4 C 0 km/h
1460 26-11-2009 04:08:03 9.5 C 5.73 g/m*3 9.5 C 0 km/h
1461 26-11-2009 04:20:03 9.4 C 5.7 g/m*3 9.4 C 0 km/h
1462 26-11-2009 04:32:03 9.5 C 5.73 g/m*3 9.5 C 0 km/h
1463 26-11-2009 04:44:03 9.6 C 5.68 g/m*3 9.6 C 0 km/h
1464 26-11-2009 04:56:03 9.6 C 5.59 g/m*3 9.6 C 0 km/h
1465 26-11-2009 05:08:03 9.6 C 5.59 g/m*3 9.6 C 0 km/h
1466 26-11-2009 05:20:04 9.6 C 5.59 g/m*3 9.6 C 0 km/h
1467 26-11-2009 05:32:04 9.7 C 5.53 g/m*3 9.7 C 0 km/h
1468 26-11-2009 05:44:04 9.7 C 5.44 g/m*3 9.7 C 0 km/h
1469 26-11-2009 05:56:04 9.7 C 5.44 g/m*3 9.7 C 0 km/h
1470 26-11-2009 06:08:04 9.6 C 5.5 g/m*3 9.6 C 0 km/h
1471 26-11-2009 06:20:04 9.6 C 5.5 g/m*3 9.6 C 0 km/h
1472 26-11-2009 06:32:04 9.6 C 5.5 g/m*3 9.6 C 0 km/h
1473 26-11-2009 06:44:04 9.7 C 5.53 g/m*3 9.7 C 0 km/h
1474 26-11-2009 06:56:04 9.6 C 5.5 g/m*3 9.6 C 0 km/h
1475 26-11-2009 07:08:02 9.7 C 5.53 g/m*3 9.7 C 0 km/h
Sensor: Nr:Datum:Temp:Abs-Feuchte:Windchill:Wind:
Aussen-T/F 1476 26-11-2009 07:20:01 9.7 C 5.44 g/m*3 9.7 C 0 km/h
1477 26-11-2009 07:32:02 9.7 C 5.44 g/m*3 9.7 C 0 km/h
1478 26-11-2009 07:44:02 9.8 C 5.47 g/m*3 9.8 C 0 km/h
1479 26-11-2009 07:56:02 9.8 C 5.38 g/m*3 9.8 C 0 km/h
1480 26-11-2009 08:08:02 9.8 C 5.47 g/m*3 9.8 C 0 km/h
1481 26-11-2009 08:20:02 9.9 C 5.42 g/m*3 9.9 C 0 km/h
1482 26-11-2009 08:32:02 9.8 C 5.47 g/m*3 9.8 C 0 km/h
1483 26-11-2009 08:44:02 10 C 5.45 g/m*3 10 C 0 km/h
1484 26-11-2009 08:56:01 10 C 5.45 g/m*3 10 C 0 km/h
1485 26-11-2009 09:08:01 9.9 C 5.51 g/m*3 9.9 C 0 km/h
1486 26-11-2009 09:20:01 10 C 5.36 g/m*3 10 C 0 km/h
1487 26-11-2009 09:32:01 10 C 5.36 g/m*3 10 C 0 km/h
1488 26-11-2009 09:44:01 10 C 5.36 g/m*3 10 C 0 km/h
1489 26-11-2009 09:56:01 10 C 5.36 g/m*3 10 C 0 km/h
1490 26-11-2009 10:08:01 10 C 5.26 g/m*3 10 C 0 km/h
1491 26-11-2009 10:20:02 10.1 C 5.3 g/m*3 10.1 C 0 km/h
1492 26-11-2009 10:32:01 10.2 C 5.23 g/m*3 10.2 C 0 km/h
1493 26-11-2009 10:44:01 10.3 C 5.27 g/m*3 10.3 C 0 km/h
1494 26-11-2009 10:56:02 10.4 C 5.2 g/m*3 10.4 C 0 km/h
1495 26-11-2009 11:08:01 10.5 C 5.14 g/m*3 10.5 C 0 km/h
1496 26-11-2009 11:20:02 10.9 C 5.07 g/m*3 10.9 C 0 km/h
1497 26-11-2009 11:32:01 10.7 C 5.3 g/m*3 10.7 C 0 km/h
1498 26-11-2009 11:44:01 10.9 C 5.27 g/m*3 10.9 C 0 km/h
1499 26-11-2009 11:56:03 11.1 C 5.24 g/m*3 11.1 C 0 km/h
1500 26-11-2009 12:08:02 11.3 C 5.2 g/m*3 11.3 C 0 km/h
Sensor: Nr:Datum:Temp:Abs-Feuchte:Windchill:Wind:
Aussen-T/F 1501 26-11-2009 12:20:02 11.1 C 5.24 g/m*3 11.1 C 0 km/h
1502 26-11-2009 12:32:02 11 C 5.31 g/m*3 11 C 0 km/h
1503 26-11-2009 12:44:02 11 C 5.31 g/m*3 11 C 0 km/h
1504 26-11-2009 12:56:02 11.3 C 5.41 g/m*3 11.3 C 0 km/h
1505 26-11-2009 13:08:02 11.3 C 5.41 g/m*3 11.3 C 0 km/h
1506 26-11-2009 13:20:02 11.4 C 5.44 g/m*3 11.4 C 0 km/h
1507 26-11-2009 13:32:02 11.7 C 5.54 g/m*3 11.7 C 0 km/h
1508 26-11-2009 13:44:02 11.2 C 5.88 g/m*3 11.2 C 0 km/h
1509 26-11-2009 13:56:02 11.1 C 5.94 g/m*3 11.1 C 0 km/h
1510 26-11-2009 14:08:01 10.7 C 5.8 g/m*3 10.7 C 0 km/h
1511 26-11-2009 14:20:01 10.6 C 5.76 g/m*3 10.6 C 0 km/h
1512 26-11-2009 14:32:02 10.7 C 5.8 g/m*3 10.7 C 0 km/h
1513 26-11-2009 14:44:02 10.8 C 5.83 g/m*3 10.8 C 0 km/h
1514 26-11-2009 14:56:02 10.7 C 5.8 g/m*3 10.7 C 0 km/h
1515 26-11-2009 15:08:02 10.7 C 5.89 g/m*3 10.7 C 0 km/h
1516 26-11-2009 15:20:02 10.8 C 5.83 g/m*3 10.8 C 0 km/h
1517 26-11-2009 15:32:02 10.8 C 5.63 g/m*3 10.8 C 0 km/h
1518 26-11-2009 15:44:02 10.8 C 5.73 g/m*3 10.8 C 0 km/h
1519 26-11-2009 15:56:01 10.6 C 5.47 g/m*3 10.6 C 0 km/h
1520 26-11-2009 16:08:02 10.3 C 5.46 g/m*3 10.3 C 0 km/h
1521 26-11-2009 16:20:01 10.3 C 5.46 g/m*3 10.3 C 0 km/h
1522 26-11-2009 16:32:02 10.2 C 5.33 g/m*3 10.2 C 0 km/h
1523 26-11-2009 16:44:02 10.1 C 5.3 g/m*3 10.1 C 0 km/h
1524 26-11-2009 16:56:02 9.9 C 5.42 g/m*3 9.9 C 0 km/h
1525 26-11-2009 17:08:02 9.8 C 5.47 g/m*3 9.8 C 0 km/h
Sensor: Nr:Datum:Temp:Abs-Feuchte:Windchill:Wind:
Aussen-T/F 1526 26-11-2009 17:20:01 9.7 C 5.53 g/m*3 9.7 C 0 km/h
1527 26-11-2009 17:32:02 10 C 5.54 g/m*3 10 C 0 km/h
1528 26-11-2009 17:44:02 9.9 C 5.7 g/m*3 9.9 C 0 km/h
1529 26-11-2009 17:56:02 10 C 5.64 g/m*3 10 C 0 km/h
1530 26-11-2009 18:08:02 9.8 C 5.66 g/m*3 9.8 C 0 km/h
1531 26-11-2009 18:20:02 10.1 C 5.67 g/m*3 10.1 C 0 km/h
1532 26-11-2009 18:32:02 10 C 5.64 g/m*3 10 C 0 km/h
1533 26-11-2009 18:44:02 10 C 5.64 g/m*3 10 C 0 km/h
1534 26-11-2009 18:56:02 10.2 C 5.61 g/m*3 10.2 C 0 km/h
1535 26-11-2009 19:08:02 10.2 C 5.52 g/m*3 10.2 C 0 km/h
1536 26-11-2009 19:20:02 10.3 C 5.55 g/m*3 10.3 C 0 km/h
1537 26-11-2009 19:32:02 9.5 C 6.1 g/m*3 9.5 C 0 km/h
1538 26-11-2009 19:44:02 9 C 6.44 g/m*3 9 C 0 km/h
1539 26-11-2009 19:56:02 8.8 C 6.79 g/m*3 8.8 C 0 km/h
1540 26-11-2009 20:08:02 8.8 C 6.7 g/m*3 8.8 C 0 km/h
1541 26-11-2009 20:20:02 8.9 C 6.83 g/m*3 8.9 C 0 km/h
1542 26-11-2009 20:32:02 8.4 C 6.79 g/m*3 8.4 C 0 km/h
1543 26-11-2009 20:44:02 8.4 C 6.79 g/m*3 8.4 C 0 km/h
1544 26-11-2009 20:56:02 8.8 C 6.35 g/m*3 8.8 C 0 km/h
1545 26-11-2009 21:08:02 9.3 C 6.11 g/m*3 9.3 C 0 km/h
1546 26-11-2009 21:20:02 9.7 C 6.08 g/m*3 9.7 C 0 km/h
1547 26-11-2009 21:32:03 9.8 C 5.94 g/m*3 9.8 C 0 km/h
1548 26-11-2009 21:44:03 10 C 5.83 g/m*3 10 C 0 km/h
1549 26-11-2009 21:56:02 10 C 5.83 g/m*3 10 C 0 km/h
1550 26-11-2009 22:08:02 10 C 5.92 g/m*3 10 C 0 km/h
Sensor: Nr:Datum:Temp:Abs-Feuchte:Windchill:Wind:
Aussen-T/F 1551 26-11-2009 22:20:01 10 C 5.83 g/m*3 10 C 0 km/h
1552 26-11-2009 22:32:02 10.1 C 5.86 g/m*3 10.1 C 0 km/h
1553 26-11-2009 22:44:02 10.1 C 5.77 g/m*3 10.1 C 0 km/h
1554 26-11-2009 22:56:02 10.3 C 5.75 g/m*3 10.3 C 0 km/h
1555 26-11-2009 23:09:01 10.5 C 5.72 g/m*3 10.5 C 0 km/h
1556 26-11-2009 23:21:01 10.4 C 5.69 g/m*3 10.4 C 0 km/h
1557 26-11-2009 23:33:01 10.5 C 5.72 g/m*3 10.5 C 0 km/h
1558 26-11-2009 23:45:01 10.4 C 5.78 g/m*3 10.4 C 0 km/h
1559 26-11-2009 23:57:01 10.4 C 5.88 g/m*3 10.4 C 0 km/h
1560 27-11-2009 00:09:01 10.4 C 5.88 g/m*3 10.4 C 0 km/h
1561 27-11-2009 00:21:01 10.6 C 5.86 g/m*3 10.6 C 0 km/h
1562 27-11-2009 00:33:01 10.8 C 5.73 g/m*3 10.8 C 0 km/h
1563 27-11-2009 00:45:01 10.8 C 5.73 g/m*3 10.8 C 0 km/h
1564 27-11-2009 00:57:02 10.7 C 5.89 g/m*3 10.7 C 0 km/h
1565 27-11-2009 01:09:02 10.4 C 6.07 g/m*3 10.4 C 0 km/h
1566 27-11-2009 01:21:02 10.7 C 5.99 g/m*3 10.7 C 0 km/h
1567 27-11-2009 01:33:02 10.8 C 5.93 g/m*3 10.8 C 0 km/h
1568 27-11-2009 01:45:02 10.9 C 5.87 g/m*3 10.9 C 0 km/h
1569 27-11-2009 01:57:02 11 C 5.81 g/m*3 11 C 0 km/h
1570 27-11-2009 02:09:02 11 C 5.71 g/m*3 11 C 0 km/h
1571 27-11-2009 02:21:02 10.9 C 5.87 g/m*3 10.9 C 0 km/h
1572 27-11-2009 02:33:02 11 C 5.71 g/m*3 11 C 0 km/h
1573 27-11-2009 02:45:02 10.9 C 5.77 g/m*3 10.9 C 0 km/h
1574 27-11-2009 02:57:02 11 C 5.51 g/m*3 11 C 0 km/h
1575 27-11-2009 03:09:02 10.9 C 5.57 g/m*3 10.9 C 0 km/h
Sensor: Nr:Datum:Temp:Abs-Feuchte:Windchill:Wind:
Aussen-T/F 1576 27-11-2009 03:21:02 10.9 C 5.57 g/m*3 10.9 C 0 km/h
1577 27-11-2009 03:33:02 10.9 C 5.67 g/m*3 10.9 C 0 km/h
1578 27-11-2009 03:45:02 10.8 C 5.63 g/m*3 10.8 C 0 km/h
1579 27-11-2009 03:57:02 10.5 C 5.72 g/m*3 10.5 C 0 km/h
1580 27-11-2009 04:09:02 10.1 C 5.86 g/m*3 10.1 C 0 km/h
1581 27-11-2009 04:21:02 9.8 C 5.94 g/m*3 9.8 C 0 km/h
1582 27-11-2009 04:33:02 9.3 C 5.84 g/m*3 9.3 C 0 km/h
1583 27-11-2009 04:45:03 9.1 C 6.03 g/m*3 9.1 C 0 km/h
1584 27-11-2009 04:57:03 8.9 C 6.22 g/m*3 8.9 C 0 km/h
1585 27-11-2009 05:09:03 9 C 6.08 g/m*3 9 C 0 km/h
1586 27-11-2009 05:21:03 9.1 C 6.03 g/m*3 9.1 C 0 km/h
1587 27-11-2009 05:33:03 9.1 C 6.03 g/m*3 9.1 C 0 km/h
1588 27-11-2009 05:45:03 9.1 C 6.12 g/m*3 9.1 C 0 km/h
1589 27-11-2009 05:57:03 8.9 C 6.22 g/m*3 8.9 C 0 km/h
1590 27-11-2009 06:09:03 8.5 C 6.32 g/m*3 8.5 C 0 km/h
1591 27-11-2009 06:21:03 8.3 C 6.66 g/m*3 8.3 C 0 km/h
1592 27-11-2009 06:33:03 8.2 C 6.78 g/m*3 8.2 C 0 km/h
1593 27-11-2009 06:45:03 8.1 C 6.66 g/m*3 8.1 C 0 km/h
1594 27-11-2009 06:57:03 7.9 C 6.74 g/m*3 7.9 C 0 km/h
1595 27-11-2009 07:09:02 7.7 C 6.73 g/m*3 7.7 C 0 km/h
1596 27-11-2009 07:21:01 7.5 C 6.72 g/m*3 7.5 C 0 km/h
1597 27-11-2009 07:33:01 7.4 C 6.84 g/m*3 7.4 C 0 km/h
1598 27-11-2009 07:45:01 7.5 C 6.96 g/m*3 7.5 C 0 km/h
1599 27-11-2009 07:57:01 7.5 C 7.04 g/m*3 7.5 C 0 km/h
1600 27-11-2009 08:09:02 7.6 C 6.93 g/m*3 7.6 C 0 km/h
Sensor: Nr:Datum:Temp:Abs-Feuchte:Windchill:Wind:
Aussen-T/F 1601 27-11-2009 08:21:01 8.2 C 6.7 g/m*3 8.2 C 0 km/h
1602 27-11-2009 08:33:02 8.2 C 6.36 g/m*3 8.2 C 0 km/h
1603 27-11-2009 08:45:01 8.4 C 6.02 g/m*3 8.4 C 0 km/h
1604 27-11-2009 08:57:01 8.4 C 5.85 g/m*3 8.4 C 0 km/h
1605 27-11-2009 09:09:02 8.3 C 5.82 g/m*3 8.3 C 0 km/h
1606 27-11-2009 09:21:02 8.5 C 5.72 g/m*3 8.5 C 0 km/h
1607 27-11-2009 09:33:02 8.6 C 5.67 g/m*3 8.6 C 0 km/h
1608 27-11-2009 09:45:02 8.8 C 5.57 g/m*3 8.8 C 0 km/h
1609 27-11-2009 09:57:02 8.7 C 5.53 g/m*3 8.7 C 0 km/h
1610 27-11-2009 10:09:02 8.8 C 5.57 g/m*3 8.8 C 0 km/h
1611 27-11-2009 10:21:01 9 C 5.55 g/m*3 9 C 0 km/h
1612 27-11-2009 10:33:01 9.1 C 5.59 g/m*3 9.1 C 0 km/h
1613 27-11-2009 10:45:01 9.2 C 5.54 g/m*3 9.2 C 0 km/h
1614 27-11-2009 10:57:01 9.2 C 5.54 g/m*3 9.2 C 0 km/h
1615 27-11-2009 11:09:02 9.4 C 5.61 g/m*3 9.4 C 0 km/h
1616 27-11-2009 11:21:02 9.3 C 5.57 g/m*3 9.3 C 0 km/h
1617 27-11-2009 11:33:01 9.4 C 5.52 g/m*3 9.4 C 0 km/h
1618 27-11-2009 11:45:02 9.5 C 5.46 g/m*3 9.5 C 0 km/h
1619 27-11-2009 11:57:02 9.6 C 5.4 g/m*3 9.6 C 0 km/h
1620 27-11-2009 12:09:01 9.3 C 5.3 g/m*3 9.3 C 0 km/h
1621 27-11-2009 12:21:02 9.1 C 5.32 g/m*3 9.1 C 0 km/h
1622 27-11-2009 12:33:01 9 C 5.47 g/m*3 9 C 0 km/h
1623 27-11-2009 12:45:03 9.2 C 5.54 g/m*3 9.2 C 0 km/h
1624 27-11-2009 12:57:03 9.5 C 5.55 g/m*3 9.5 C 0 km/h
1625 27-11-2009 13:09:02 9.8 C 5.57 g/m*3 9.8 C 0 km/h
Sensor: Nr:Datum:Temp:Abs-Feuchte:Windchill:Wind:
Aussen-T/F 1626 27-11-2009 13:21:02 10 C 5.26 g/m*3 10 C 0 km/h
1627 27-11-2009 13:33:02 10 C 5.17 g/m*3 10 C 0 km/h
1628 27-11-2009 13:45:02 9.8 C 5.2 g/m*3 9.8 C 0 km/h
1629 27-11-2009 13:57:02 9.6 C 5.13 g/m*3 9.6 C 0 km/h
1630 27-11-2009 14:09:02 9.7 C 5.07 g/m*3 9.7 C 0 km/h
1631 27-11-2009 14:21:02 9.8 C 5.01 g/m*3 9.8 C 0 km/h
1632 27-11-2009 14:33:01 9.8 C 5.01 g/m*3 9.8 C 0 km/h
1633 27-11-2009 14:45:02 9.8 C 4.92 g/m*3 9.8 C 0 km/h
1634 27-11-2009 14:57:02 9.7 C 4.98 g/m*3 9.7 C 0 km/h
1635 27-11-2009 15:09:01 9.8 C 5.01 g/m*3 9.8 C 0 km/h
1636 27-11-2009 15:21:02 9.6 C 4.95 g/m*3 9.6 C 0 km/h
1637 27-11-2009 15:33:02 9.3 C 5.12 g/m*3 9.3 C 0 km/h
1638 27-11-2009 15:45:02 9.1 C 5.23 g/m*3 9.1 C 0 km/h
1639 27-11-2009 15:57:02 9 C 5.38 g/m*3 9 C 0 km/h
1640 27-11-2009 16:09:02 8.8 C 5.48 g/m*3 8.8 C 0 km/h
1641 27-11-2009 16:21:01 8.7 C 5.45 g/m*3 8.7 C 0 km/h
1642 27-11-2009 16:33:02 8.5 C 5.29 g/m*3 8.5 C 0 km/h
1643 27-11-2009 16:45:01 8.6 C 5.16 g/m*3 8.6 C 0 km/h
1644 27-11-2009 16:57:01 8.4 C 5.09 g/m*3 8.4 C 0 km/h
1645 27-11-2009 17:09:02 8.5 C 4.95 g/m*3 8.5 C 0 km/h
1646 27-11-2009 17:21:01 8.4 C 4.92 g/m*3 8.4 C 0 km/h
1647 27-11-2009 17:33:02 8.3 C 4.89 g/m*3 8.3 C 0 km/h
1648 27-11-2009 17:45:01 8.4 C 4.92 g/m*3 8.4 C 0 km/h
1649 27-11-2009 17:57:01 8.4 C 4.92 g/m*3 8.4 C 0 km/h
1650 27-11-2009 18:09:02 8.4 C 5.01 g/m*3 8.4 C 0 km/h
Sensor: Nr:Datum:Temp:Abs-Feuchte:Windchill:Wind:
Aussen-T/F 1651 27-11-2009 18:21:02 8.5 C 4.95 g/m*3 8.5 C 0 km/h
1652 27-11-2009 18:33:02 8.5 C 4.87 g/m*3 8.5 C 0 km/h
1653 27-11-2009 18:45:01 8.4 C 4.84 g/m*3 8.4 C 0 km/h
1654 27-11-2009 18:57:01 8.4 C 4.92 g/m*3 8.4 C 0 km/h
1655 27-11-2009 19:09:02 8.9 C 4.82 g/m*3 8.9 C 0 km/h
1656 27-11-2009 19:21:02 8.7 C 5.02 g/m*3 8.7 C 0 km/h
1657 27-11-2009 19:33:01 8.3 C 5.14 g/m*3 8.3 C 0 km/h
1658 27-11-2009 19:45:02 8.2 C 5.11 g/m*3 8.2 C 0 km/h
1659 27-11-2009 19:57:02 8.2 C 5.11 g/m*3 8.2 C 0 km/h
1660 27-11-2009 20:09:01 8.3 C 5.14 g/m*3 8.3 C 0 km/h
1661 27-11-2009 20:21:02 8.2 C 5.11 g/m*3 8.2 C 0 km/h
1662 27-11-2009 20:33:01 8.2 C 5.11 g/m*3 8.2 C 0 km/h
1663 27-11-2009 20:45:02 8.2 C 5.11 g/m*3 8.2 C 0 km/h
1664 27-11-2009 20:57:02 8.1 C 5.08 g/m*3 8.1 C 0 km/h
1665 27-11-2009 21:09:01 8.1 C 5.16 g/m*3 8.1 C 0 km/h
1666 27-11-2009 21:21:01 8.3 C 5.23 g/m*3 8.3 C 0 km/h
1667 27-11-2009 21:33:02 8.3 C 5.14 g/m*3 8.3 C 0 km/h
1668 27-11-2009 21:45:02 8.1 C 5.08 g/m*3 8.1 C 0 km/h
1669 27-11-2009 21:57:03 8 C 5.04 g/m*3 8 C 0 km/h
1670 27-11-2009 22:09:02 8 C 5.04 g/m*3 8 C 0 km/h
1671 27-11-2009 22:21:02 8.1 C 5.08 g/m*3 8.1 C 0 km/h
1672 27-11-2009 22:34:04 8 C 5.13 g/m*3 8 C 0 km/h
1673 27-11-2009 22:46:04 8.1 C 5.24 g/m*3 8.1 C 0 km/h
1674 27-11-2009 22:58:04 8 C 5.29 g/m*3 8 C 0 km/h
1675 27-11-2009 23:10:04 7.9 C 5.59 g/m*3 7.9 C 0 km/h
Sensor: Nr:Datum:Temp:Abs-Feuchte:Windchill:Wind:
Aussen-T/F 1676 27-11-2009 23:22:04 7.8 C 5.55 g/m*3 7.8 C 0 km/h
1677 27-11-2009 23:34:04 7.9 C 5.5 g/m*3 7.9 C 0 km/h
1678 27-11-2009 23:46:04 8 C 5.37 g/m*3 8 C 0 km/h
1679 27-11-2009 23:58:04 8 C 5.29 g/m*3 8 C 0 km/h

Legende:
   Min
   Max


Maximal/Minimal-Werte vom 14.11.2009 - 27.11.2009

Sensor Min Max Avg
Temp
(Aussen-T/F)
2.8 °C
20-11-2009  07:50:02
15.6 °C
21-11-2009  14:27:02
10.68 °C
Abs-Feuchte
(Aussen-T/F)
4.52 g/m*3
25-11-2009  14:19:01
10.69 g/m*3
16-11-2009  14:34:02
6.93 g/m*3
Windchill
(Aussen-T/F)
2.8 C
20-11-2009  07:50:02
15.6 C
21-11-2009  14:27:02
10.67 C

Die Daten stammen von einer Davis Vantage Pro 2 Wetter-Station und werden unter Linux mit der Software wview2wettercgi und aufbereitet. Alle Angaben erfolgen ohne Gewähr für ihre Vollständigkeit oder Richtigkeit.
Kontakt: Rainer Krienke krienke@uni-koblenz.de . Meine Webseiten an der Uni Koblenz oder privat.
Version: $Revision: 0.78 $